<?xml version="1.0" encoding="UTF-8" standalone="no" ?>
<gpx xmlns="http://www.topografix.com/GPX/1/1" xmlns:xsi="http://www.w3.org/2001/XMLSchema-instance" xsi:schemaLocation="http://www.topografix.com/GPX/1/1 http://www.topografix.com/GPX/1/1/gpx.xsd" version="1.1" creator="VisuGPX - https://www.visugpx.com">
  <metadata>
    <name>Courtaou de la Lit et Benasque</name>
    <desc><![CDATA[Le départ était assez frais , il faisait 8° mais le soleil est vite sorti. La montée est agréable et le sous-bois très joli.
Le courtaou est aussi beau en automne qu'en hiver. un petit tour à la cabane de Bénasque et au retour visite d'une cabane pour un berger , juste au-dessus du courtaou . Sortie famille type .]]></desc>
  </metadata>
  <trk>
    <name><![CDATA[La Lit & Bénasque 11-10-16]]></name>
    <trkseg>
      <trkpt lat="42.96569" lon="0.09414">
        <ele>1070.87</ele>
        <time>2016-10-11T06:38:19Z</time>
      </trkpt>
      <trkpt lat="42.96569" lon="0.09414">
        <ele>1070.87</ele>
        <time>2016-10-11T06:38:20Z</time>
      </trkpt>
      <trkpt lat="42.96569" lon="0.09413">
        <ele>1053.82</ele>
        <time>2016-10-11T06:38:24Z</time>
      </trkpt>
      <trkpt lat="42.96569" lon="0.09413">
        <ele>1053.82</ele>
        <time>2016-10-11T06:38:25Z</time>
      </trkpt>
      <trkpt lat="42.96571" lon="0.09414">
        <ele>1054.78</ele>
        <time>2016-10-11T06:38:50Z</time>
      </trkpt>
      <trkpt lat="42.96571" lon="0.09415">
        <ele>1052.38</ele>
        <time>2016-10-11T06:38:56Z</time>
      </trkpt>
      <trkpt lat="42.96568" lon="0.09414">
        <ele>1052.45</ele>
        <time>2016-10-11T06:39:28Z</time>
      </trkpt>
      <trkpt lat="42.96566" lon="0.09414">
        <ele>1052.51</ele>
        <time>2016-10-11T06:40:19Z</time>
      </trkpt>
      <trkpt lat="42.96567" lon="0.0941">
        <ele>1055.14</ele>
        <time>2016-10-11T06:40:44Z</time>
      </trkpt>
      <trkpt lat="42.96567" lon="0.09409">
        <ele>1055.18</ele>
        <time>2016-10-11T06:40:45Z</time>
      </trkpt>
      <trkpt lat="42.96572" lon="0.09397">
        <ele>1056.56</ele>
        <time>2016-10-11T06:40:53Z</time>
      </trkpt>
      <trkpt lat="42.96581" lon="0.09381">
        <ele>1057.4</ele>
        <time>2016-10-11T06:41:05Z</time>
      </trkpt>
      <trkpt lat="42.96587" lon="0.09376">
        <ele>1059.76</ele>
        <time>2016-10-11T06:41:12Z</time>
      </trkpt>
      <trkpt lat="42.96596" lon="0.09374">
        <ele>1060.42</ele>
        <time>2016-10-11T06:41:20Z</time>
      </trkpt>
      <trkpt lat="42.96606" lon="0.09377">
        <ele>1062.48</ele>
        <time>2016-10-11T06:41:28Z</time>
      </trkpt>
      <trkpt lat="42.96613" lon="0.09381">
        <ele>1062.5</ele>
        <time>2016-10-11T06:41:35Z</time>
      </trkpt>
      <trkpt lat="42.96623" lon="0.09389">
        <ele>1064.01</ele>
        <time>2016-10-11T06:41:44Z</time>
      </trkpt>
      <trkpt lat="42.96629" lon="0.09393">
        <ele>1064</ele>
        <time>2016-10-11T06:41:49Z</time>
      </trkpt>
      <trkpt lat="42.9664" lon="0.09407">
        <ele>1066.5</ele>
        <time>2016-10-11T06:42:00Z</time>
      </trkpt>
      <trkpt lat="42.96641" lon="0.09408">
        <ele>1066.5</ele>
        <time>2016-10-11T06:42:01Z</time>
      </trkpt>
      <trkpt lat="42.96649" lon="0.09414">
        <ele>1067.52</ele>
        <time>2016-10-11T06:42:08Z</time>
      </trkpt>
      <trkpt lat="42.96655" lon="0.09422">
        <ele>1068.69</ele>
        <time>2016-10-11T06:42:14Z</time>
      </trkpt>
      <trkpt lat="42.96662" lon="0.09429">
        <ele>1068.75</ele>
        <time>2016-10-11T06:42:21Z</time>
      </trkpt>
      <trkpt lat="42.96674" lon="0.09439">
        <ele>1070.57</ele>
        <time>2016-10-11T06:42:33Z</time>
      </trkpt>
      <trkpt lat="42.96692" lon="0.09456">
        <ele>1073.48</ele>
        <time>2016-10-11T06:42:53Z</time>
      </trkpt>
      <trkpt lat="42.96697" lon="0.09459">
        <ele>1074.33</ele>
        <time>2016-10-11T06:42:57Z</time>
      </trkpt>
      <trkpt lat="42.96703" lon="0.09463">
        <ele>1075.67</ele>
        <time>2016-10-11T06:43:05Z</time>
      </trkpt>
      <trkpt lat="42.96709" lon="0.09471">
        <ele>1077.04</ele>
        <time>2016-10-11T06:43:14Z</time>
      </trkpt>
      <trkpt lat="42.96717" lon="0.09477">
        <ele>1078.75</ele>
        <time>2016-10-11T06:43:22Z</time>
      </trkpt>
      <trkpt lat="42.96722" lon="0.09479">
        <ele>1080.42</ele>
        <time>2016-10-11T06:43:29Z</time>
      </trkpt>
      <trkpt lat="42.96728" lon="0.09476">
        <ele>1082.21</ele>
        <time>2016-10-11T06:43:37Z</time>
      </trkpt>
      <trkpt lat="42.96742" lon="0.09472">
        <ele>1083.96</ele>
        <time>2016-10-11T06:43:52Z</time>
      </trkpt>
      <trkpt lat="42.96753" lon="0.09472">
        <ele>1085.82</ele>
        <time>2016-10-11T06:44:00Z</time>
      </trkpt>
      <trkpt lat="42.96757" lon="0.09476">
        <ele>1085.91</ele>
        <time>2016-10-11T06:44:03Z</time>
      </trkpt>
      <trkpt lat="42.96759" lon="0.09479">
        <ele>1085.92</ele>
        <time>2016-10-11T06:44:06Z</time>
      </trkpt>
      <trkpt lat="42.96759" lon="0.09483">
        <ele>1085.97</ele>
        <time>2016-10-11T06:44:08Z</time>
      </trkpt>
      <trkpt lat="42.96761" lon="0.09485">
        <ele>1087.89</ele>
        <time>2016-10-11T06:44:10Z</time>
      </trkpt>
      <trkpt lat="42.96766" lon="0.09498">
        <ele>1088.87</ele>
        <time>2016-10-11T06:44:21Z</time>
      </trkpt>
      <trkpt lat="42.96771" lon="0.09505">
        <ele>1090.86</ele>
        <time>2016-10-11T06:44:29Z</time>
      </trkpt>
      <trkpt lat="42.96775" lon="0.09508">
        <ele>1092.13</ele>
        <time>2016-10-11T06:44:35Z</time>
      </trkpt>
      <trkpt lat="42.96778" lon="0.0951">
        <ele>1093.54</ele>
        <time>2016-10-11T06:44:40Z</time>
      </trkpt>
      <trkpt lat="42.96785" lon="0.09516">
        <ele>1094.55</ele>
        <time>2016-10-11T06:44:53Z</time>
      </trkpt>
      <trkpt lat="42.96788" lon="0.0952">
        <ele>1095.92</ele>
        <time>2016-10-11T06:44:59Z</time>
      </trkpt>
      <trkpt lat="42.96798" lon="0.09526">
        <ele>1098.33</ele>
        <time>2016-10-11T06:45:14Z</time>
      </trkpt>
      <trkpt lat="42.96806" lon="0.09532">
        <ele>1099.92</ele>
        <time>2016-10-11T06:45:25Z</time>
      </trkpt>
      <trkpt lat="42.96816" lon="0.0954">
        <ele>1102.79</ele>
        <time>2016-10-11T06:45:39Z</time>
      </trkpt>
      <trkpt lat="42.96827" lon="0.0954">
        <ele>1104.66</ele>
        <time>2016-10-11T06:45:54Z</time>
      </trkpt>
      <trkpt lat="42.96837" lon="0.09545">
        <ele>1106.23</ele>
        <time>2016-10-11T06:46:10Z</time>
      </trkpt>
      <trkpt lat="42.96843" lon="0.09545">
        <ele>1107.98</ele>
        <time>2016-10-11T06:46:20Z</time>
      </trkpt>
      <trkpt lat="42.96855" lon="0.09546">
        <ele>1109.91</ele>
        <time>2016-10-11T06:46:38Z</time>
      </trkpt>
      <trkpt lat="42.96868" lon="0.09545">
        <ele>1112.64</ele>
        <time>2016-10-11T06:46:55Z</time>
      </trkpt>
      <trkpt lat="42.96871" lon="0.09549">
        <ele>1112.53</ele>
        <time>2016-10-11T06:47:12Z</time>
      </trkpt>
      <trkpt lat="42.96882" lon="0.09559">
        <ele>1114.44</ele>
        <time>2016-10-11T06:47:28Z</time>
      </trkpt>
      <trkpt lat="42.96894" lon="0.09566">
        <ele>1116.94</ele>
        <time>2016-10-11T06:47:43Z</time>
      </trkpt>
      <trkpt lat="42.96905" lon="0.09568">
        <ele>1119.78</ele>
        <time>2016-10-11T06:48:00Z</time>
      </trkpt>
      <trkpt lat="42.96914" lon="0.09569">
        <ele>1121.74</ele>
        <time>2016-10-11T06:48:17Z</time>
      </trkpt>
      <trkpt lat="42.96921" lon="0.09572">
        <ele>1123.73</ele>
        <time>2016-10-11T06:48:28Z</time>
      </trkpt>
      <trkpt lat="42.96932" lon="0.09575">
        <ele>1125.34</ele>
        <time>2016-10-11T06:48:48Z</time>
      </trkpt>
      <trkpt lat="42.96943" lon="0.09573">
        <ele>1129.05</ele>
        <time>2016-10-11T06:49:05Z</time>
      </trkpt>
      <trkpt lat="42.96956" lon="0.09576">
        <ele>1130.58</ele>
        <time>2016-10-11T06:49:24Z</time>
      </trkpt>
      <trkpt lat="42.96966" lon="0.09585">
        <ele>1133.63</ele>
        <time>2016-10-11T06:49:37Z</time>
      </trkpt>
      <trkpt lat="42.96973" lon="0.09591">
        <ele>1134.69</ele>
        <time>2016-10-11T06:49:46Z</time>
      </trkpt>
      <trkpt lat="42.96981" lon="0.09601">
        <ele>1135.79</ele>
        <time>2016-10-11T06:50:00Z</time>
      </trkpt>
      <trkpt lat="42.9699" lon="0.09607">
        <ele>1137.64</ele>
        <time>2016-10-11T06:50:15Z</time>
      </trkpt>
      <trkpt lat="42.96998" lon="0.09612">
        <ele>1140.43</ele>
        <time>2016-10-11T06:50:32Z</time>
      </trkpt>
      <trkpt lat="42.97004" lon="0.09626">
        <ele>1142.09</ele>
        <time>2016-10-11T06:50:50Z</time>
      </trkpt>
      <trkpt lat="42.97011" lon="0.09637">
        <ele>1143.96</ele>
        <time>2016-10-11T06:51:05Z</time>
      </trkpt>
      <trkpt lat="42.97021" lon="0.09646">
        <ele>1147.47</ele>
        <time>2016-10-11T06:51:20Z</time>
      </trkpt>
      <trkpt lat="42.97021" lon="0.09646">
        <ele>1147.43</ele>
        <time>2016-10-11T06:51:21Z</time>
      </trkpt>
      <trkpt lat="42.97028" lon="0.09647">
        <ele>1148.66</ele>
        <time>2016-10-11T06:51:30Z</time>
      </trkpt>
      <trkpt lat="42.97035" lon="0.0965">
        <ele>1150.06</ele>
        <time>2016-10-11T06:51:40Z</time>
      </trkpt>
      <trkpt lat="42.97043" lon="0.09648">
        <ele>1151.88</ele>
        <time>2016-10-11T06:51:58Z</time>
      </trkpt>
      <trkpt lat="42.97049" lon="0.09648">
        <ele>1154.13</ele>
        <time>2016-10-11T06:52:07Z</time>
      </trkpt>
      <trkpt lat="42.97058" lon="0.09648">
        <ele>1154.89</ele>
        <time>2016-10-11T06:52:21Z</time>
      </trkpt>
      <trkpt lat="42.97063" lon="0.09646">
        <ele>1155.63</ele>
        <time>2016-10-11T06:52:28Z</time>
      </trkpt>
      <trkpt lat="42.97073" lon="0.09653">
        <ele>1158.83</ele>
        <time>2016-10-11T06:52:41Z</time>
      </trkpt>
      <trkpt lat="42.97074" lon="0.09654">
        <ele>1158.9</ele>
        <time>2016-10-11T06:52:42Z</time>
      </trkpt>
      <trkpt lat="42.97079" lon="0.09656">
        <ele>1160.09</ele>
        <time>2016-10-11T06:52:48Z</time>
      </trkpt>
      <trkpt lat="42.97092" lon="0.09664">
        <ele>1162.05</ele>
        <time>2016-10-11T06:53:03Z</time>
      </trkpt>
      <trkpt lat="42.97097" lon="0.09668">
        <ele>1163.27</ele>
        <time>2016-10-11T06:53:12Z</time>
      </trkpt>
      <trkpt lat="42.97097" lon="0.09665">
        <ele>1163.23</ele>
        <time>2016-10-11T06:53:33Z</time>
      </trkpt>
      <trkpt lat="42.97104" lon="0.09666">
        <ele>1164.94</ele>
        <time>2016-10-11T06:53:58Z</time>
      </trkpt>
      <trkpt lat="42.97114" lon="0.09662">
        <ele>1168.08</ele>
        <time>2016-10-11T06:54:15Z</time>
      </trkpt>
      <trkpt lat="42.97125" lon="0.09656">
        <ele>1168.95</ele>
        <time>2016-10-11T06:54:36Z</time>
      </trkpt>
      <trkpt lat="42.97137" lon="0.09649">
        <ele>1171.88</ele>
        <time>2016-10-11T06:54:56Z</time>
      </trkpt>
      <trkpt lat="42.9715" lon="0.0964">
        <ele>1174.45</ele>
        <time>2016-10-11T06:55:17Z</time>
      </trkpt>
      <trkpt lat="42.97153" lon="0.09637">
        <ele>1175.68</ele>
        <time>2016-10-11T06:55:22Z</time>
      </trkpt>
      <trkpt lat="42.97168" lon="0.09627">
        <ele>1178.37</ele>
        <time>2016-10-11T06:55:42Z</time>
      </trkpt>
      <trkpt lat="42.97173" lon="0.09622">
        <ele>1180.94</ele>
        <time>2016-10-11T06:55:52Z</time>
      </trkpt>
      <trkpt lat="42.97171" lon="0.09623">
        <ele>1181.79</ele>
        <time>2016-10-11T06:55:59Z</time>
      </trkpt>
      <trkpt lat="42.97165" lon="0.09626">
        <ele>1183.74</ele>
        <time>2016-10-11T06:56:12Z</time>
      </trkpt>
      <trkpt lat="42.97158" lon="0.09632">
        <ele>1185.55</ele>
        <time>2016-10-11T06:56:25Z</time>
      </trkpt>
      <trkpt lat="42.97149" lon="0.09636">
        <ele>1187.29</ele>
        <time>2016-10-11T06:56:39Z</time>
      </trkpt>
      <trkpt lat="42.97136" lon="0.09632">
        <ele>1189.77</ele>
        <time>2016-10-11T06:56:57Z</time>
      </trkpt>
      <trkpt lat="42.97125" lon="0.09619">
        <ele>1192.17</ele>
        <time>2016-10-11T06:57:15Z</time>
      </trkpt>
      <trkpt lat="42.97123" lon="0.09617">
        <ele>1193.55</ele>
        <time>2016-10-11T06:57:18Z</time>
      </trkpt>
      <trkpt lat="42.9711" lon="0.09603">
        <ele>1196.2</ele>
        <time>2016-10-11T06:57:37Z</time>
      </trkpt>
      <trkpt lat="42.97104" lon="0.09597">
        <ele>1198.19</ele>
        <time>2016-10-11T06:57:47Z</time>
      </trkpt>
      <trkpt lat="42.97105" lon="0.09597">
        <ele>1198.1</ele>
        <time>2016-10-11T06:58:06Z</time>
      </trkpt>
      <trkpt lat="42.97108" lon="0.0959">
        <ele>1197.97</ele>
        <time>2016-10-11T06:58:37Z</time>
      </trkpt>
      <trkpt lat="42.9711" lon="0.09587">
        <ele>1197.96</ele>
        <time>2016-10-11T06:59:03Z</time>
      </trkpt>
      <trkpt lat="42.97108" lon="0.09584">
        <ele>1197.94</ele>
        <time>2016-10-11T06:59:27Z</time>
      </trkpt>
      <trkpt lat="42.97106" lon="0.09586">
        <ele>1197.96</ele>
        <time>2016-10-11T06:59:50Z</time>
      </trkpt>
      <trkpt lat="42.97109" lon="0.09583">
        <ele>1197.99</ele>
        <time>2016-10-11T07:00:16Z</time>
      </trkpt>
      <trkpt lat="42.9711" lon="0.09588">
        <ele>1198.03</ele>
        <time>2016-10-11T07:00:36Z</time>
      </trkpt>
      <trkpt lat="42.97112" lon="0.09593">
        <ele>1198.11</ele>
        <time>2016-10-11T07:01:05Z</time>
      </trkpt>
      <trkpt lat="42.97108" lon="0.09588">
        <ele>1200.34</ele>
        <time>2016-10-11T07:01:29Z</time>
      </trkpt>
      <trkpt lat="42.97106" lon="0.09584">
        <ele>1202.75</ele>
        <time>2016-10-11T07:01:39Z</time>
      </trkpt>
      <trkpt lat="42.97106" lon="0.09571">
        <ele>1206.1</ele>
        <time>2016-10-11T07:01:57Z</time>
      </trkpt>
      <trkpt lat="42.97103" lon="0.09567">
        <ele>1207.75</ele>
        <time>2016-10-11T07:02:03Z</time>
      </trkpt>
      <trkpt lat="42.97098" lon="0.09562">
        <ele>1207.44</ele>
        <time>2016-10-11T07:02:23Z</time>
      </trkpt>
      <trkpt lat="42.97096" lon="0.09559">
        <ele>1208.85</ele>
        <time>2016-10-11T07:02:28Z</time>
      </trkpt>
      <trkpt lat="42.97092" lon="0.09552">
        <ele>1211.03</ele>
        <time>2016-10-11T07:02:45Z</time>
      </trkpt>
      <trkpt lat="42.9709" lon="0.09543">
        <ele>1214.07</ele>
        <time>2016-10-11T07:02:58Z</time>
      </trkpt>
      <trkpt lat="42.97089" lon="0.09543">
        <ele>1214.06</ele>
        <time>2016-10-11T07:03:03Z</time>
      </trkpt>
      <trkpt lat="42.97091" lon="0.0954">
        <ele>1215.01</ele>
        <time>2016-10-11T07:03:07Z</time>
      </trkpt>
      <trkpt lat="42.97094" lon="0.09522">
        <ele>1217.87</ele>
        <time>2016-10-11T07:03:29Z</time>
      </trkpt>
      <trkpt lat="42.97094" lon="0.09513">
        <ele>1220.25</ele>
        <time>2016-10-11T07:03:40Z</time>
      </trkpt>
      <trkpt lat="42.97092" lon="0.09505">
        <ele>1222.96</ele>
        <time>2016-10-11T07:03:58Z</time>
      </trkpt>
      <trkpt lat="42.97085" lon="0.09494">
        <ele>1224.92</ele>
        <time>2016-10-11T07:04:18Z</time>
      </trkpt>
      <trkpt lat="42.97081" lon="0.09481">
        <ele>1227.38</ele>
        <time>2016-10-11T07:04:39Z</time>
      </trkpt>
      <trkpt lat="42.97084" lon="0.09471">
        <ele>1230.4</ele>
        <time>2016-10-11T07:04:56Z</time>
      </trkpt>
      <trkpt lat="42.97081" lon="0.09463">
        <ele>1234.06</ele>
        <time>2016-10-11T07:05:11Z</time>
      </trkpt>
      <trkpt lat="42.97077" lon="0.09454">
        <ele>1235.59</ele>
        <time>2016-10-11T07:05:28Z</time>
      </trkpt>
      <trkpt lat="42.97076" lon="0.09452">
        <ele>1235.56</ele>
        <time>2016-10-11T07:05:33Z</time>
      </trkpt>
      <trkpt lat="42.97074" lon="0.09445">
        <ele>1238.13</ele>
        <time>2016-10-11T07:05:52Z</time>
      </trkpt>
      <trkpt lat="42.97073" lon="0.0944">
        <ele>1239.97</ele>
        <time>2016-10-11T07:06:01Z</time>
      </trkpt>
      <trkpt lat="42.97071" lon="0.0943">
        <ele>1240.55</ele>
        <time>2016-10-11T07:06:18Z</time>
      </trkpt>
      <trkpt lat="42.9707" lon="0.09426">
        <ele>1242.01</ele>
        <time>2016-10-11T07:06:25Z</time>
      </trkpt>
      <trkpt lat="42.97069" lon="0.09417">
        <ele>1243.57</ele>
        <time>2016-10-11T07:06:36Z</time>
      </trkpt>
      <trkpt lat="42.97066" lon="0.09395">
        <ele>1244.52</ele>
        <time>2016-10-11T07:06:57Z</time>
      </trkpt>
      <trkpt lat="42.97066" lon="0.09392">
        <ele>1245.95</ele>
        <time>2016-10-11T07:07:02Z</time>
      </trkpt>
      <trkpt lat="42.9706" lon="0.09385">
        <ele>1247.54</ele>
        <time>2016-10-11T07:07:19Z</time>
      </trkpt>
      <trkpt lat="42.97058" lon="0.09384">
        <ele>1248.92</ele>
        <time>2016-10-11T07:07:22Z</time>
      </trkpt>
      <trkpt lat="42.9705" lon="0.09379">
        <ele>1249.88</ele>
        <time>2016-10-11T07:07:42Z</time>
      </trkpt>
      <trkpt lat="42.97044" lon="0.09375">
        <ele>1251.01</ele>
        <time>2016-10-11T07:07:58Z</time>
      </trkpt>
      <trkpt lat="42.97044" lon="0.09375">
        <ele>1251</ele>
        <time>2016-10-11T07:07:59Z</time>
      </trkpt>
      <trkpt lat="42.9704" lon="0.09369">
        <ele>1252.68</ele>
        <time>2016-10-11T07:08:18Z</time>
      </trkpt>
      <trkpt lat="42.9704" lon="0.09369">
        <ele>1254.02</ele>
        <time>2016-10-11T07:08:20Z</time>
      </trkpt>
      <trkpt lat="42.97038" lon="0.09367">
        <ele>1255.11</ele>
        <time>2016-10-11T07:08:30Z</time>
      </trkpt>
      <trkpt lat="42.97038" lon="0.09364">
        <ele>1256.48</ele>
        <time>2016-10-11T07:08:33Z</time>
      </trkpt>
      <trkpt lat="42.97037" lon="0.09352">
        <ele>1257.93</ele>
        <time>2016-10-11T07:08:51Z</time>
      </trkpt>
      <trkpt lat="42.97038" lon="0.09346">
        <ele>1261.5</ele>
        <time>2016-10-11T07:09:07Z</time>
      </trkpt>
      <trkpt lat="42.9704" lon="0.09326">
        <ele>1263.82</ele>
        <time>2016-10-11T07:09:29Z</time>
      </trkpt>
      <trkpt lat="42.97041" lon="0.09324">
        <ele>1263.78</ele>
        <time>2016-10-11T07:09:31Z</time>
      </trkpt>
      <trkpt lat="42.97044" lon="0.09321">
        <ele>1265.39</ele>
        <time>2016-10-11T07:09:43Z</time>
      </trkpt>
      <trkpt lat="42.97046" lon="0.09319">
        <ele>1266.63</ele>
        <time>2016-10-11T07:09:46Z</time>
      </trkpt>
      <trkpt lat="42.97055" lon="0.09318">
        <ele>1270.12</ele>
        <time>2016-10-11T07:10:07Z</time>
      </trkpt>
      <trkpt lat="42.97065" lon="0.09316">
        <ele>1272.15</ele>
        <time>2016-10-11T07:10:21Z</time>
      </trkpt>
      <trkpt lat="42.97071" lon="0.09313">
        <ele>1275.5</ele>
        <time>2016-10-11T07:10:34Z</time>
      </trkpt>
      <trkpt lat="42.97072" lon="0.09313">
        <ele>1275.44</ele>
        <time>2016-10-11T07:10:35Z</time>
      </trkpt>
      <trkpt lat="42.97071" lon="0.09315">
        <ele>1278.05</ele>
        <time>2016-10-11T07:10:56Z</time>
      </trkpt>
      <trkpt lat="42.97072" lon="0.09317">
        <ele>1279.51</ele>
        <time>2016-10-11T07:11:17Z</time>
      </trkpt>
      <trkpt lat="42.97069" lon="0.0932">
        <ele>1279.29</ele>
        <time>2016-10-11T07:11:42Z</time>
      </trkpt>
      <trkpt lat="42.97072" lon="0.09317">
        <ele>1279.05</ele>
        <time>2016-10-11T07:12:07Z</time>
      </trkpt>
      <trkpt lat="42.97071" lon="0.09324">
        <ele>1278.96</ele>
        <time>2016-10-11T07:12:30Z</time>
      </trkpt>
      <trkpt lat="42.97075" lon="0.0932">
        <ele>1278.83</ele>
        <time>2016-10-11T07:12:55Z</time>
      </trkpt>
      <trkpt lat="42.97072" lon="0.09322">
        <ele>1278.73</ele>
        <time>2016-10-11T07:13:21Z</time>
      </trkpt>
      <trkpt lat="42.97072" lon="0.09322">
        <ele>1278.64</ele>
        <time>2016-10-11T07:13:56Z</time>
      </trkpt>
      <trkpt lat="42.97071" lon="0.09321">
        <ele>1278.53</ele>
        <time>2016-10-11T07:14:22Z</time>
      </trkpt>
      <trkpt lat="42.97073" lon="0.0932">
        <ele>1278.56</ele>
        <time>2016-10-11T07:14:35Z</time>
      </trkpt>
      <trkpt lat="42.97076" lon="0.09331">
        <ele>1278.58</ele>
        <time>2016-10-11T07:15:01Z</time>
      </trkpt>
      <trkpt lat="42.97072" lon="0.09326">
        <ele>1280.02</ele>
        <time>2016-10-11T07:15:10Z</time>
      </trkpt>
      <trkpt lat="42.97071" lon="0.09324">
        <ele>1281.35</ele>
        <time>2016-10-11T07:15:14Z</time>
      </trkpt>
      <trkpt lat="42.97078" lon="0.09315">
        <ele>1283.72</ele>
        <time>2016-10-11T07:15:36Z</time>
      </trkpt>
      <trkpt lat="42.97076" lon="0.09303">
        <ele>1286.78</ele>
        <time>2016-10-11T07:15:49Z</time>
      </trkpt>
      <trkpt lat="42.97074" lon="0.09294">
        <ele>1288.85</ele>
        <time>2016-10-11T07:16:04Z</time>
      </trkpt>
      <trkpt lat="42.97073" lon="0.09283">
        <ele>1291.86</ele>
        <time>2016-10-11T07:16:19Z</time>
      </trkpt>
      <trkpt lat="42.97071" lon="0.09264">
        <ele>1294.93</ele>
        <time>2016-10-11T07:16:40Z</time>
      </trkpt>
      <trkpt lat="42.97071" lon="0.09253">
        <ele>1297.73</ele>
        <time>2016-10-11T07:17:00Z</time>
      </trkpt>
      <trkpt lat="42.9707" lon="0.09247">
        <ele>1299.13</ele>
        <time>2016-10-11T07:17:06Z</time>
      </trkpt>
      <trkpt lat="42.97072" lon="0.09237">
        <ele>1301.79</ele>
        <time>2016-10-11T07:17:18Z</time>
      </trkpt>
      <trkpt lat="42.97069" lon="0.09228">
        <ele>1303.53</ele>
        <time>2016-10-11T07:17:35Z</time>
      </trkpt>
      <trkpt lat="42.97061" lon="0.09216">
        <ele>1304.86</ele>
        <time>2016-10-11T07:17:53Z</time>
      </trkpt>
      <trkpt lat="42.97055" lon="0.09202">
        <ele>1308.5</ele>
        <time>2016-10-11T07:18:13Z</time>
      </trkpt>
      <trkpt lat="42.97055" lon="0.09193">
        <ele>1308.29</ele>
        <time>2016-10-11T07:18:30Z</time>
      </trkpt>
      <trkpt lat="42.9706" lon="0.09193">
        <ele>1308.11</ele>
        <time>2016-10-11T07:18:57Z</time>
      </trkpt>
      <trkpt lat="42.97055" lon="0.0918">
        <ele>1310.71</ele>
        <time>2016-10-11T07:19:18Z</time>
      </trkpt>
      <trkpt lat="42.9705" lon="0.09172">
        <ele>1312.16</ele>
        <time>2016-10-11T07:19:30Z</time>
      </trkpt>
      <trkpt lat="42.97046" lon="0.09161">
        <ele>1313.79</ele>
        <time>2016-10-11T07:19:47Z</time>
      </trkpt>
      <trkpt lat="42.97045" lon="0.09157">
        <ele>1313.56</ele>
        <time>2016-10-11T07:20:12Z</time>
      </trkpt>
      <trkpt lat="42.97033" lon="0.09144">
        <ele>1315.29</ele>
        <time>2016-10-11T07:20:30Z</time>
      </trkpt>
      <trkpt lat="42.97026" lon="0.09129">
        <ele>1315.17</ele>
        <time>2016-10-11T07:20:46Z</time>
      </trkpt>
      <trkpt lat="42.97024" lon="0.09114">
        <ele>1316.12</ele>
        <time>2016-10-11T07:21:02Z</time>
      </trkpt>
      <trkpt lat="42.97019" lon="0.09106">
        <ele>1318.79</ele>
        <time>2016-10-11T07:21:17Z</time>
      </trkpt>
      <trkpt lat="42.97014" lon="0.09096">
        <ele>1318.65</ele>
        <time>2016-10-11T07:21:32Z</time>
      </trkpt>
      <trkpt lat="42.97008" lon="0.09075">
        <ele>1321.43</ele>
        <time>2016-10-11T07:21:51Z</time>
      </trkpt>
      <trkpt lat="42.97009" lon="0.0906">
        <ele>1323.55</ele>
        <time>2016-10-11T07:22:09Z</time>
      </trkpt>
      <trkpt lat="42.97005" lon="0.09036">
        <ele>1325.31</ele>
        <time>2016-10-11T07:22:31Z</time>
      </trkpt>
      <trkpt lat="42.97002" lon="0.09018">
        <ele>1328.17</ele>
        <time>2016-10-11T07:22:48Z</time>
      </trkpt>
      <trkpt lat="42.97002" lon="0.09017">
        <ele>1328.14</ele>
        <time>2016-10-11T07:22:49Z</time>
      </trkpt>
      <trkpt lat="42.96998" lon="0.09">
        <ele>1329.97</ele>
        <time>2016-10-11T07:23:04Z</time>
      </trkpt>
      <trkpt lat="42.96997" lon="0.08991">
        <ele>1331.54</ele>
        <time>2016-10-11T07:23:16Z</time>
      </trkpt>
      <trkpt lat="42.96993" lon="0.08975">
        <ele>1333.99</ele>
        <time>2016-10-11T07:23:37Z</time>
      </trkpt>
      <trkpt lat="42.96991" lon="0.08968">
        <ele>1335.65</ele>
        <time>2016-10-11T07:23:43Z</time>
      </trkpt>
      <trkpt lat="42.96991" lon="0.0895">
        <ele>1337.75</ele>
        <time>2016-10-11T07:24:01Z</time>
      </trkpt>
      <trkpt lat="42.96995" lon="0.08944">
        <ele>1340.39</ele>
        <time>2016-10-11T07:24:13Z</time>
      </trkpt>
      <trkpt lat="42.97001" lon="0.08936">
        <ele>1342.46</ele>
        <time>2016-10-11T07:24:29Z</time>
      </trkpt>
      <trkpt lat="42.97006" lon="0.08933">
        <ele>1344.68</ele>
        <time>2016-10-11T07:24:40Z</time>
      </trkpt>
      <trkpt lat="42.9701" lon="0.08931">
        <ele>1348.16</ele>
        <time>2016-10-11T07:24:52Z</time>
      </trkpt>
      <trkpt lat="42.97011" lon="0.0893">
        <ele>1348.13</ele>
        <time>2016-10-11T07:24:53Z</time>
      </trkpt>
      <trkpt lat="42.97014" lon="0.08934">
        <ele>1350.03</ele>
        <time>2016-10-11T07:25:01Z</time>
      </trkpt>
      <trkpt lat="42.97024" lon="0.08936">
        <ele>1351.69</ele>
        <time>2016-10-11T07:25:20Z</time>
      </trkpt>
      <trkpt lat="42.97024" lon="0.08925">
        <ele>1355.17</ele>
        <time>2016-10-11T07:25:37Z</time>
      </trkpt>
      <trkpt lat="42.97024" lon="0.08924">
        <ele>1355.12</ele>
        <time>2016-10-11T07:25:38Z</time>
      </trkpt>
      <trkpt lat="42.97027" lon="0.08916">
        <ele>1355.98</ele>
        <time>2016-10-11T07:25:54Z</time>
      </trkpt>
      <trkpt lat="42.9703" lon="0.08911">
        <ele>1359.53</ele>
        <time>2016-10-11T07:26:04Z</time>
      </trkpt>
      <trkpt lat="42.9703" lon="0.08911">
        <ele>1359.52</ele>
        <time>2016-10-11T07:26:05Z</time>
      </trkpt>
      <trkpt lat="42.97031" lon="0.089">
        <ele>1360.65</ele>
        <time>2016-10-11T07:26:19Z</time>
      </trkpt>
      <trkpt lat="42.97035" lon="0.08895">
        <ele>1362.86</ele>
        <time>2016-10-11T07:26:30Z</time>
      </trkpt>
      <trkpt lat="42.97037" lon="0.08888">
        <ele>1363.93</ele>
        <time>2016-10-11T07:26:42Z</time>
      </trkpt>
      <trkpt lat="42.97039" lon="0.08882">
        <ele>1366.37</ele>
        <time>2016-10-11T07:26:49Z</time>
      </trkpt>
      <trkpt lat="42.97042" lon="0.08879">
        <ele>1367.8</ele>
        <time>2016-10-11T07:26:56Z</time>
      </trkpt>
      <trkpt lat="42.97038" lon="0.08867">
        <ele>1369.66</ele>
        <time>2016-10-11T07:27:10Z</time>
      </trkpt>
      <trkpt lat="42.97041" lon="0.08858">
        <ele>1371.3</ele>
        <time>2016-10-11T07:27:29Z</time>
      </trkpt>
      <trkpt lat="42.97044" lon="0.0885">
        <ele>1371.86</ele>
        <time>2016-10-11T07:27:51Z</time>
      </trkpt>
      <trkpt lat="42.97044" lon="0.08849">
        <ele>1373.2</ele>
        <time>2016-10-11T07:27:53Z</time>
      </trkpt>
      <trkpt lat="42.97037" lon="0.0884">
        <ele>1375.91</ele>
        <time>2016-10-11T07:28:09Z</time>
      </trkpt>
      <trkpt lat="42.97033" lon="0.08826">
        <ele>1377.63</ele>
        <time>2016-10-11T07:28:31Z</time>
      </trkpt>
      <trkpt lat="42.97036" lon="0.0882">
        <ele>1377.46</ele>
        <time>2016-10-11T07:28:56Z</time>
      </trkpt>
      <trkpt lat="42.97041" lon="0.08819">
        <ele>1377.29</ele>
        <time>2016-10-11T07:29:24Z</time>
      </trkpt>
      <trkpt lat="42.97038" lon="0.08821">
        <ele>1378.58</ele>
        <time>2016-10-11T07:29:41Z</time>
      </trkpt>
      <trkpt lat="42.97034" lon="0.08816">
        <ele>1381.22</ele>
        <time>2016-10-11T07:29:53Z</time>
      </trkpt>
      <trkpt lat="42.97033" lon="0.08815">
        <ele>1381.19</ele>
        <time>2016-10-11T07:29:54Z</time>
      </trkpt>
      <trkpt lat="42.97026" lon="0.08804">
        <ele>1383.92</ele>
        <time>2016-10-11T07:30:15Z</time>
      </trkpt>
      <trkpt lat="42.9703" lon="0.08794">
        <ele>1385.78</ele>
        <time>2016-10-11T07:30:40Z</time>
      </trkpt>
      <trkpt lat="42.97029" lon="0.08787">
        <ele>1385.68</ele>
        <time>2016-10-11T07:31:05Z</time>
      </trkpt>
      <trkpt lat="42.97034" lon="0.08778">
        <ele>1385.6</ele>
        <time>2016-10-11T07:31:32Z</time>
      </trkpt>
      <trkpt lat="42.97029" lon="0.08777">
        <ele>1386.74</ele>
        <time>2016-10-11T07:31:53Z</time>
      </trkpt>
      <trkpt lat="42.97026" lon="0.08774">
        <ele>1389.1</ele>
        <time>2016-10-11T07:32:06Z</time>
      </trkpt>
      <trkpt lat="42.97026" lon="0.08772">
        <ele>1391.24</ele>
        <time>2016-10-11T07:32:19Z</time>
      </trkpt>
      <trkpt lat="42.97025" lon="0.08766">
        <ele>1394.65</ele>
        <time>2016-10-11T07:32:39Z</time>
      </trkpt>
      <trkpt lat="42.97026" lon="0.08753">
        <ele>1396.69</ele>
        <time>2016-10-11T07:33:00Z</time>
      </trkpt>
      <trkpt lat="42.97027" lon="0.08743">
        <ele>1400.2</ele>
        <time>2016-10-11T07:33:22Z</time>
      </trkpt>
      <trkpt lat="42.97027" lon="0.08743">
        <ele>1400.19</ele>
        <time>2016-10-11T07:33:23Z</time>
      </trkpt>
      <trkpt lat="42.97032" lon="0.08732">
        <ele>1403.12</ele>
        <time>2016-10-11T07:33:46Z</time>
      </trkpt>
      <trkpt lat="42.97029" lon="0.08723">
        <ele>1403.8</ele>
        <time>2016-10-11T07:34:10Z</time>
      </trkpt>
      <trkpt lat="42.9703" lon="0.08721">
        <ele>1405.86</ele>
        <time>2016-10-11T07:34:12Z</time>
      </trkpt>
      <trkpt lat="42.97032" lon="0.08716">
        <ele>1406.84</ele>
        <time>2016-10-11T07:34:37Z</time>
      </trkpt>
      <trkpt lat="42.97034" lon="0.0871">
        <ele>1409.08</ele>
        <time>2016-10-11T07:34:51Z</time>
      </trkpt>
      <trkpt lat="42.97034" lon="0.08707">
        <ele>1409.05</ele>
        <time>2016-10-11T07:34:56Z</time>
      </trkpt>
      <trkpt lat="42.97034" lon="0.08703">
        <ele>1411.35</ele>
        <time>2016-10-11T07:35:02Z</time>
      </trkpt>
      <trkpt lat="42.9704" lon="0.08691">
        <ele>1413.44</ele>
        <time>2016-10-11T07:35:23Z</time>
      </trkpt>
      <trkpt lat="42.97048" lon="0.08683">
        <ele>1416.67</ele>
        <time>2016-10-11T07:35:38Z</time>
      </trkpt>
      <trkpt lat="42.97056" lon="0.08671">
        <ele>1417.19</ele>
        <time>2016-10-11T07:35:56Z</time>
      </trkpt>
      <trkpt lat="42.97059" lon="0.08666">
        <ele>1420.27</ele>
        <time>2016-10-11T07:36:11Z</time>
      </trkpt>
      <trkpt lat="42.97059" lon="0.08666">
        <ele>1420.07</ele>
        <time>2016-10-11T07:36:12Z</time>
      </trkpt>
      <trkpt lat="42.97058" lon="0.08659">
        <ele>1422.05</ele>
        <time>2016-10-11T07:36:22Z</time>
      </trkpt>
      <trkpt lat="42.97052" lon="0.0865">
        <ele>1424.9</ele>
        <time>2016-10-11T07:36:42Z</time>
      </trkpt>
      <trkpt lat="42.9705" lon="0.08645">
        <ele>1426.06</ele>
        <time>2016-10-11T07:36:50Z</time>
      </trkpt>
      <trkpt lat="42.97048" lon="0.08632">
        <ele>1429.07</ele>
        <time>2016-10-11T07:37:04Z</time>
      </trkpt>
      <trkpt lat="42.97048" lon="0.08629">
        <ele>1430.2</ele>
        <time>2016-10-11T07:37:15Z</time>
      </trkpt>
      <trkpt lat="42.97051" lon="0.08619">
        <ele>1431.82</ele>
        <time>2016-10-11T07:37:31Z</time>
      </trkpt>
      <trkpt lat="42.97054" lon="0.08608">
        <ele>1432.7</ele>
        <time>2016-10-11T07:37:59Z</time>
      </trkpt>
      <trkpt lat="42.97049" lon="0.08617">
        <ele>1432.75</ele>
        <time>2016-10-11T07:38:28Z</time>
      </trkpt>
      <trkpt lat="42.97046" lon="0.08618">
        <ele>1432.74</ele>
        <time>2016-10-11T07:38:57Z</time>
      </trkpt>
      <trkpt lat="42.97052" lon="0.08617">
        <ele>1432.91</ele>
        <time>2016-10-11T07:39:29Z</time>
      </trkpt>
      <trkpt lat="42.9705" lon="0.08621">
        <ele>1432.91</ele>
        <time>2016-10-11T07:39:57Z</time>
      </trkpt>
      <trkpt lat="42.97045" lon="0.08607">
        <ele>1434.4</ele>
        <time>2016-10-11T07:40:15Z</time>
      </trkpt>
      <trkpt lat="42.97044" lon="0.08593">
        <ele>1437.03</ele>
        <time>2016-10-11T07:40:31Z</time>
      </trkpt>
      <trkpt lat="42.97046" lon="0.08589">
        <ele>1438.62</ele>
        <time>2016-10-11T07:40:38Z</time>
      </trkpt>
      <trkpt lat="42.97046" lon="0.08581">
        <ele>1439.26</ele>
        <time>2016-10-11T07:40:58Z</time>
      </trkpt>
      <trkpt lat="42.97045" lon="0.08573">
        <ele>1442.34</ele>
        <time>2016-10-11T07:41:12Z</time>
      </trkpt>
      <trkpt lat="42.97044" lon="0.08567">
        <ele>1444.17</ele>
        <time>2016-10-11T07:41:20Z</time>
      </trkpt>
      <trkpt lat="42.97044" lon="0.08562">
        <ele>1445.33</ele>
        <time>2016-10-11T07:41:27Z</time>
      </trkpt>
      <trkpt lat="42.9704" lon="0.08551">
        <ele>1447.12</ele>
        <time>2016-10-11T07:41:37Z</time>
      </trkpt>
      <trkpt lat="42.97037" lon="0.08537">
        <ele>1449.72</ele>
        <time>2016-10-11T07:42:01Z</time>
      </trkpt>
      <trkpt lat="42.97035" lon="0.08533">
        <ele>1451.4</ele>
        <time>2016-10-11T07:42:10Z</time>
      </trkpt>
      <trkpt lat="42.97033" lon="0.08529">
        <ele>1453.34</ele>
        <time>2016-10-11T07:42:29Z</time>
      </trkpt>
      <trkpt lat="42.9703" lon="0.08516">
        <ele>1456.01</ele>
        <time>2016-10-11T07:42:51Z</time>
      </trkpt>
      <trkpt lat="42.97032" lon="0.08497">
        <ele>1457.71</ele>
        <time>2016-10-11T07:43:12Z</time>
      </trkpt>
      <trkpt lat="42.97033" lon="0.08497">
        <ele>1457.52</ele>
        <time>2016-10-11T07:43:31Z</time>
      </trkpt>
      <trkpt lat="42.97032" lon="0.0849">
        <ele>1458.87</ele>
        <time>2016-10-11T07:43:46Z</time>
      </trkpt>
      <trkpt lat="42.97037" lon="0.08482">
        <ele>1459.9</ele>
        <time>2016-10-11T07:44:01Z</time>
      </trkpt>
      <trkpt lat="42.9704" lon="0.08478">
        <ele>1461.62</ele>
        <time>2016-10-11T07:44:10Z</time>
      </trkpt>
      <trkpt lat="42.97038" lon="0.08474">
        <ele>1461.6</ele>
        <time>2016-10-11T07:44:39Z</time>
      </trkpt>
      <trkpt lat="42.97041" lon="0.0847">
        <ele>1462.9</ele>
        <time>2016-10-11T07:45:02Z</time>
      </trkpt>
      <trkpt lat="42.97049" lon="0.08463">
        <ele>1463</ele>
        <time>2016-10-11T07:45:17Z</time>
      </trkpt>
      <trkpt lat="42.97053" lon="0.08459">
        <ele>1463.83</ele>
        <time>2016-10-11T07:45:32Z</time>
      </trkpt>
      <trkpt lat="42.97053" lon="0.08458">
        <ele>1465.54</ele>
        <time>2016-10-11T07:45:46Z</time>
      </trkpt>
      <trkpt lat="42.97061" lon="0.08449">
        <ele>1465.59</ele>
        <time>2016-10-11T07:45:58Z</time>
      </trkpt>
      <trkpt lat="42.9707" lon="0.0845">
        <ele>1465.79</ele>
        <time>2016-10-11T07:46:09Z</time>
      </trkpt>
      <trkpt lat="42.97071" lon="0.0845">
        <ele>1467.1</ele>
        <time>2016-10-11T07:46:11Z</time>
      </trkpt>
      <trkpt lat="42.97082" lon="0.08447">
        <ele>1467.23</ele>
        <time>2016-10-11T07:46:24Z</time>
      </trkpt>
      <trkpt lat="42.9709" lon="0.08442">
        <ele>1467.34</ele>
        <time>2016-10-11T07:46:36Z</time>
      </trkpt>
      <trkpt lat="42.97092" lon="0.08442">
        <ele>1468.41</ele>
        <time>2016-10-11T07:46:53Z</time>
      </trkpt>
      <trkpt lat="42.97098" lon="0.08439">
        <ele>1469.76</ele>
        <time>2016-10-11T07:47:13Z</time>
      </trkpt>
      <trkpt lat="42.97106" lon="0.08433">
        <ele>1469.96</ele>
        <time>2016-10-11T07:47:26Z</time>
      </trkpt>
      <trkpt lat="42.97115" lon="0.08429">
        <ele>1471.99</ele>
        <time>2016-10-11T07:47:38Z</time>
      </trkpt>
      <trkpt lat="42.97124" lon="0.08427">
        <ele>1473.96</ele>
        <time>2016-10-11T07:47:53Z</time>
      </trkpt>
      <trkpt lat="42.97125" lon="0.08417">
        <ele>1475.03</ele>
        <time>2016-10-11T07:48:05Z</time>
      </trkpt>
      <trkpt lat="42.97122" lon="0.08416">
        <ele>1475.1</ele>
        <time>2016-10-11T07:48:19Z</time>
      </trkpt>
      <trkpt lat="42.97122" lon="0.08416">
        <ele>1475.11</ele>
        <time>2016-10-11T07:48:20Z</time>
      </trkpt>
      <trkpt lat="42.9712" lon="0.08413">
        <ele>1475.22</ele>
        <time>2016-10-11T07:48:33Z</time>
      </trkpt>
      <trkpt lat="42.97118" lon="0.08411">
        <ele>1475.32</ele>
        <time>2016-10-11T07:48:36Z</time>
      </trkpt>
      <trkpt lat="42.97115" lon="0.08402">
        <ele>1475.34</ele>
        <time>2016-10-11T07:48:49Z</time>
      </trkpt>
      <trkpt lat="42.97115" lon="0.08406">
        <ele>1475.69</ele>
        <time>2016-10-11T07:49:15Z</time>
      </trkpt>
      <trkpt lat="42.97117" lon="0.08411">
        <ele>1475.73</ele>
        <time>2016-10-11T07:49:20Z</time>
      </trkpt>
      <trkpt lat="42.9712" lon="0.08414">
        <ele>1475.74</ele>
        <time>2016-10-11T07:49:23Z</time>
      </trkpt>
      <trkpt lat="42.97127" lon="0.08419">
        <ele>1475.86</ele>
        <time>2016-10-11T07:49:37Z</time>
      </trkpt>
      <trkpt lat="42.97128" lon="0.08421">
        <ele>1475.9</ele>
        <time>2016-10-11T07:49:40Z</time>
      </trkpt>
      <trkpt lat="42.97135" lon="0.08419">
        <ele>1476.96</ele>
        <time>2016-10-11T07:49:52Z</time>
      </trkpt>
      <trkpt lat="42.97142" lon="0.08413">
        <ele>1478.98</ele>
        <time>2016-10-11T07:50:03Z</time>
      </trkpt>
      <trkpt lat="42.97146" lon="0.08413">
        <ele>1480.96</ele>
        <time>2016-10-11T07:50:10Z</time>
      </trkpt>
      <trkpt lat="42.97147" lon="0.08412">
        <ele>1481.1</ele>
        <time>2016-10-11T07:50:41Z</time>
      </trkpt>
      <trkpt lat="42.97146" lon="0.08413">
        <ele>1481.39</ele>
        <time>2016-10-11T07:51:17Z</time>
      </trkpt>
      <trkpt lat="42.97147" lon="0.08413">
        <ele>1481.66</ele>
        <time>2016-10-11T07:51:55Z</time>
      </trkpt>
      <trkpt lat="42.97152" lon="0.0841">
        <ele>1483.21</ele>
        <time>2016-10-11T07:52:09Z</time>
      </trkpt>
      <trkpt lat="42.97153" lon="0.08408">
        <ele>1483.27</ele>
        <time>2016-10-11T07:52:32Z</time>
      </trkpt>
      <trkpt lat="42.97155" lon="0.08407">
        <ele>1483.39</ele>
        <time>2016-10-11T07:52:50Z</time>
      </trkpt>
      <trkpt lat="42.97157" lon="0.08411">
        <ele>1483.47</ele>
        <time>2016-10-11T07:53:07Z</time>
      </trkpt>
      <trkpt lat="42.97158" lon="0.08407">
        <ele>1483.58</ele>
        <time>2016-10-11T07:53:22Z</time>
      </trkpt>
      <trkpt lat="42.97169" lon="0.08412">
        <ele>1484.72</ele>
        <time>2016-10-11T07:53:58Z</time>
      </trkpt>
      <trkpt lat="42.97161" lon="0.08405">
        <ele>1484.77</ele>
        <time>2016-10-11T07:54:07Z</time>
      </trkpt>
      <trkpt lat="42.97156" lon="0.08408">
        <ele>1484.88</ele>
        <time>2016-10-11T07:54:33Z</time>
      </trkpt>
      <trkpt lat="42.97156" lon="0.08408">
        <ele>1485</ele>
        <time>2016-10-11T07:54:54Z</time>
      </trkpt>
      <trkpt lat="42.97155" lon="0.0841">
        <ele>1485.14</ele>
        <time>2016-10-11T07:55:19Z</time>
      </trkpt>
      <trkpt lat="42.97155" lon="0.0841">
        <ele>1485.46</ele>
        <time>2016-10-11T07:56:14Z</time>
      </trkpt>
      <trkpt lat="42.97156" lon="0.0841">
        <ele>1485.84</ele>
        <time>2016-10-11T07:57:22Z</time>
      </trkpt>
      <trkpt lat="42.97156" lon="0.0841">
        <ele>1486.19</ele>
        <time>2016-10-11T07:58:31Z</time>
      </trkpt>
      <trkpt lat="42.97157" lon="0.0841">
        <ele>1486.51</ele>
        <time>2016-10-11T07:59:26Z</time>
      </trkpt>
      <trkpt lat="42.97157" lon="0.0841">
        <ele>1486.88</ele>
        <time>2016-10-11T08:00:26Z</time>
      </trkpt>
      <trkpt lat="42.97157" lon="0.08411">
        <ele>1487.22</ele>
        <time>2016-10-11T08:01:22Z</time>
      </trkpt>
      <trkpt lat="42.97157" lon="0.08411">
        <ele>1487.48</ele>
        <time>2016-10-11T08:02:07Z</time>
      </trkpt>
      <trkpt lat="42.97156" lon="0.08411">
        <ele>1487.74</ele>
        <time>2016-10-11T08:02:53Z</time>
      </trkpt>
      <trkpt lat="42.97156" lon="0.08411">
        <ele>1488.02</ele>
        <time>2016-10-11T08:03:44Z</time>
      </trkpt>
      <trkpt lat="42.97156" lon="0.0841">
        <ele>1488.26</ele>
        <time>2016-10-11T08:04:28Z</time>
      </trkpt>
      <trkpt lat="42.97156" lon="0.08405">
        <ele>1488.38</ele>
        <time>2016-10-11T08:04:46Z</time>
      </trkpt>
      <trkpt lat="42.97158" lon="0.08402">
        <ele>1489.35</ele>
        <time>2016-10-11T08:05:17Z</time>
      </trkpt>
      <trkpt lat="42.97159" lon="0.08399">
        <ele>1490.21</ele>
        <time>2016-10-11T08:05:20Z</time>
      </trkpt>
      <trkpt lat="42.97166" lon="0.08393">
        <ele>1493.63</ele>
        <time>2016-10-11T08:05:31Z</time>
      </trkpt>
      <trkpt lat="42.97172" lon="0.08385">
        <ele>1496.71</ele>
        <time>2016-10-11T08:05:44Z</time>
      </trkpt>
      <trkpt lat="42.97172" lon="0.08384">
        <ele>1496.67</ele>
        <time>2016-10-11T08:05:45Z</time>
      </trkpt>
      <trkpt lat="42.97172" lon="0.08381">
        <ele>1496.71</ele>
        <time>2016-10-11T08:05:48Z</time>
      </trkpt>
      <trkpt lat="42.97173" lon="0.08371">
        <ele>1498.71</ele>
        <time>2016-10-11T08:05:58Z</time>
      </trkpt>
      <trkpt lat="42.97177" lon="0.08362">
        <ele>1501.4</ele>
        <time>2016-10-11T08:06:13Z</time>
      </trkpt>
      <trkpt lat="42.97179" lon="0.08358">
        <ele>1502.71</ele>
        <time>2016-10-11T08:06:21Z</time>
      </trkpt>
      <trkpt lat="42.97184" lon="0.08352">
        <ele>1505</ele>
        <time>2016-10-11T08:06:37Z</time>
      </trkpt>
      <trkpt lat="42.97184" lon="0.08352">
        <ele>1505</ele>
        <time>2016-10-11T08:06:38Z</time>
      </trkpt>
      <trkpt lat="42.97188" lon="0.08349">
        <ele>1504.57</ele>
        <time>2016-10-11T08:07:00Z</time>
      </trkpt>
      <trkpt lat="42.9719" lon="0.08348">
        <ele>1508.34</ele>
        <time>2016-10-11T08:07:10Z</time>
      </trkpt>
      <trkpt lat="42.97191" lon="0.08348">
        <ele>1508.32</ele>
        <time>2016-10-11T08:07:11Z</time>
      </trkpt>
      <trkpt lat="42.97196" lon="0.08346">
        <ele>1509.63</ele>
        <time>2016-10-11T08:07:22Z</time>
      </trkpt>
      <trkpt lat="42.972" lon="0.08348">
        <ele>1508.03</ele>
        <time>2016-10-11T08:07:30Z</time>
      </trkpt>
      <trkpt lat="42.97201" lon="0.08346">
        <ele>1510.68</ele>
        <time>2016-10-11T08:07:35Z</time>
      </trkpt>
      <trkpt lat="42.97203" lon="0.08345">
        <ele>1511.91</ele>
        <time>2016-10-11T08:07:38Z</time>
      </trkpt>
      <trkpt lat="42.97205" lon="0.08345">
        <ele>1510.47</ele>
        <time>2016-10-11T08:07:43Z</time>
      </trkpt>
      <trkpt lat="42.97207" lon="0.08344">
        <ele>1514.37</ele>
        <time>2016-10-11T08:07:48Z</time>
      </trkpt>
      <trkpt lat="42.97208" lon="0.08344">
        <ele>1514.33</ele>
        <time>2016-10-11T08:07:49Z</time>
      </trkpt>
      <trkpt lat="42.97215" lon="0.08343">
        <ele>1516.66</ele>
        <time>2016-10-11T08:08:05Z</time>
      </trkpt>
      <trkpt lat="42.97222" lon="0.08339">
        <ele>1518.29</ele>
        <time>2016-10-11T08:08:22Z</time>
      </trkpt>
      <trkpt lat="42.97223" lon="0.08336">
        <ele>1520.04</ele>
        <time>2016-10-11T08:08:27Z</time>
      </trkpt>
      <trkpt lat="42.97224" lon="0.08334">
        <ele>1518.42</ele>
        <time>2016-10-11T08:08:32Z</time>
      </trkpt>
      <trkpt lat="42.97224" lon="0.08332">
        <ele>1521.12</ele>
        <time>2016-10-11T08:08:39Z</time>
      </trkpt>
      <trkpt lat="42.97227" lon="0.08325">
        <ele>1523.75</ele>
        <time>2016-10-11T08:08:53Z</time>
      </trkpt>
      <trkpt lat="42.97227" lon="0.08325">
        <ele>1523.74</ele>
        <time>2016-10-11T08:08:54Z</time>
      </trkpt>
      <trkpt lat="42.97231" lon="0.0832">
        <ele>1524.67</ele>
        <time>2016-10-11T08:09:08Z</time>
      </trkpt>
      <trkpt lat="42.97229" lon="0.08318">
        <ele>1524.68</ele>
        <time>2016-10-11T08:09:36Z</time>
      </trkpt>
      <trkpt lat="42.9723" lon="0.08319">
        <ele>1524.76</ele>
        <time>2016-10-11T08:10:06Z</time>
      </trkpt>
      <trkpt lat="42.9723" lon="0.0832">
        <ele>1524.86</ele>
        <time>2016-10-11T08:10:42Z</time>
      </trkpt>
      <trkpt lat="42.97234" lon="0.08315">
        <ele>1527.04</ele>
        <time>2016-10-11T08:11:09Z</time>
      </trkpt>
      <trkpt lat="42.97234" lon="0.08312">
        <ele>1527.05</ele>
        <time>2016-10-11T08:11:13Z</time>
      </trkpt>
      <trkpt lat="42.97236" lon="0.08302">
        <ele>1529.1</ele>
        <time>2016-10-11T08:11:25Z</time>
      </trkpt>
      <trkpt lat="42.97237" lon="0.083">
        <ele>1530.33</ele>
        <time>2016-10-11T08:11:28Z</time>
      </trkpt>
      <trkpt lat="42.97239" lon="0.08289">
        <ele>1532.2</ele>
        <time>2016-10-11T08:11:41Z</time>
      </trkpt>
      <trkpt lat="42.97242" lon="0.08282">
        <ele>1533.97</ele>
        <time>2016-10-11T08:12:00Z</time>
      </trkpt>
      <trkpt lat="42.97246" lon="0.08274">
        <ele>1533.99</ele>
        <time>2016-10-11T08:12:12Z</time>
      </trkpt>
      <trkpt lat="42.97246" lon="0.08269">
        <ele>1535.24</ele>
        <time>2016-10-11T08:12:17Z</time>
      </trkpt>
      <trkpt lat="42.97248" lon="0.08262">
        <ele>1536.4</ele>
        <time>2016-10-11T08:12:25Z</time>
      </trkpt>
      <trkpt lat="42.97252" lon="0.08254">
        <ele>1536.42</ele>
        <time>2016-10-11T08:12:36Z</time>
      </trkpt>
      <trkpt lat="42.97257" lon="0.08248">
        <ele>1537.36</ele>
        <time>2016-10-11T08:12:51Z</time>
      </trkpt>
      <trkpt lat="42.97259" lon="0.08244">
        <ele>1539.14</ele>
        <time>2016-10-11T08:12:56Z</time>
      </trkpt>
      <trkpt lat="42.97263" lon="0.08237">
        <ele>1540.15</ele>
        <time>2016-10-11T08:13:10Z</time>
      </trkpt>
      <trkpt lat="42.97268" lon="0.08225">
        <ele>1540.97</ele>
        <time>2016-10-11T08:13:22Z</time>
      </trkpt>
      <trkpt lat="42.97274" lon="0.08217">
        <ele>1540.99</ele>
        <time>2016-10-11T08:13:33Z</time>
      </trkpt>
      <trkpt lat="42.97275" lon="0.08217">
        <ele>1542.26</ele>
        <time>2016-10-11T08:13:35Z</time>
      </trkpt>
      <trkpt lat="42.97279" lon="0.08213">
        <ele>1543.54</ele>
        <time>2016-10-11T08:13:44Z</time>
      </trkpt>
      <trkpt lat="42.97283" lon="0.08204">
        <ele>1544.58</ele>
        <time>2016-10-11T08:13:56Z</time>
      </trkpt>
      <trkpt lat="42.97284" lon="0.08203">
        <ele>1546.06</ele>
        <time>2016-10-11T08:13:58Z</time>
      </trkpt>
      <trkpt lat="42.97286" lon="0.08195">
        <ele>1546.91</ele>
        <time>2016-10-11T08:14:10Z</time>
      </trkpt>
      <trkpt lat="42.97289" lon="0.0819">
        <ele>1547.71</ele>
        <time>2016-10-11T08:14:21Z</time>
      </trkpt>
      <trkpt lat="42.97289" lon="0.08185">
        <ele>1549.97</ele>
        <time>2016-10-11T08:14:28Z</time>
      </trkpt>
      <trkpt lat="42.97291" lon="0.08173">
        <ele>1551.9</ele>
        <time>2016-10-11T08:14:43Z</time>
      </trkpt>
      <trkpt lat="42.97292" lon="0.08168">
        <ele>1552.67</ele>
        <time>2016-10-11T08:14:49Z</time>
      </trkpt>
      <trkpt lat="42.97293" lon="0.08157">
        <ele>1553.5</ele>
        <time>2016-10-11T08:15:02Z</time>
      </trkpt>
      <trkpt lat="42.97296" lon="0.08146">
        <ele>1554.64</ele>
        <time>2016-10-11T08:15:14Z</time>
      </trkpt>
      <trkpt lat="42.97297" lon="0.08143">
        <ele>1556.31</ele>
        <time>2016-10-11T08:15:18Z</time>
      </trkpt>
      <trkpt lat="42.97297" lon="0.08132">
        <ele>1557.94</ele>
        <time>2016-10-11T08:15:32Z</time>
      </trkpt>
      <trkpt lat="42.97299" lon="0.08123">
        <ele>1558.87</ele>
        <time>2016-10-11T08:15:44Z</time>
      </trkpt>
      <trkpt lat="42.97302" lon="0.08114">
        <ele>1559.72</ele>
        <time>2016-10-11T08:15:59Z</time>
      </trkpt>
      <trkpt lat="42.97304" lon="0.08111">
        <ele>1560.97</ele>
        <time>2016-10-11T08:16:04Z</time>
      </trkpt>
      <trkpt lat="42.97304" lon="0.08109">
        <ele>1562.39</ele>
        <time>2016-10-11T08:16:07Z</time>
      </trkpt>
      <trkpt lat="42.97304" lon="0.081">
        <ele>1562.4</ele>
        <time>2016-10-11T08:16:19Z</time>
      </trkpt>
      <trkpt lat="42.97304" lon="0.08101">
        <ele>1562.56</ele>
        <time>2016-10-11T08:16:48Z</time>
      </trkpt>
      <trkpt lat="42.97304" lon="0.08096">
        <ele>1562.68</ele>
        <time>2016-10-11T08:17:08Z</time>
      </trkpt>
      <trkpt lat="42.97303" lon="0.08084">
        <ele>1562.73</ele>
        <time>2016-10-11T08:17:20Z</time>
      </trkpt>
      <trkpt lat="42.97302" lon="0.08078">
        <ele>1563.53</ele>
        <time>2016-10-11T08:17:27Z</time>
      </trkpt>
      <trkpt lat="42.97297" lon="0.08068">
        <ele>1565.29</ele>
        <time>2016-10-11T08:17:40Z</time>
      </trkpt>
      <trkpt lat="42.97297" lon="0.08067">
        <ele>1565.28</ele>
        <time>2016-10-11T08:17:41Z</time>
      </trkpt>
      <trkpt lat="42.97295" lon="0.0806">
        <ele>1566.53</ele>
        <time>2016-10-11T08:17:58Z</time>
      </trkpt>
      <trkpt lat="42.97294" lon="0.08059">
        <ele>1564.09</ele>
        <time>2016-10-11T08:18:08Z</time>
      </trkpt>
      <trkpt lat="42.97294" lon="0.0806">
        <ele>1566.57</ele>
        <time>2016-10-11T08:18:10Z</time>
      </trkpt>
      <trkpt lat="42.97291" lon="0.08052">
        <ele>1568.31</ele>
        <time>2016-10-11T08:18:26Z</time>
      </trkpt>
      <trkpt lat="42.97287" lon="0.08043">
        <ele>1568.32</ele>
        <time>2016-10-11T08:18:39Z</time>
      </trkpt>
      <trkpt lat="42.97288" lon="0.08037">
        <ele>1571.17</ele>
        <time>2016-10-11T08:18:48Z</time>
      </trkpt>
      <trkpt lat="42.97286" lon="0.08028">
        <ele>1572.01</ele>
        <time>2016-10-11T08:18:59Z</time>
      </trkpt>
      <trkpt lat="42.97283" lon="0.0802">
        <ele>1571.84</ele>
        <time>2016-10-11T08:19:11Z</time>
      </trkpt>
      <trkpt lat="42.97282" lon="0.08017">
        <ele>1573.58</ele>
        <time>2016-10-11T08:19:13Z</time>
      </trkpt>
      <trkpt lat="42.97281" lon="0.0801">
        <ele>1573.66</ele>
        <time>2016-10-11T08:19:27Z</time>
      </trkpt>
      <trkpt lat="42.9728" lon="0.08006">
        <ele>1571.36</ele>
        <time>2016-10-11T08:19:44Z</time>
      </trkpt>
      <trkpt lat="42.9728" lon="0.08001">
        <ele>1570.59</ele>
        <time>2016-10-11T08:20:01Z</time>
      </trkpt>
      <trkpt lat="42.97279" lon="0.08">
        <ele>1569.13</ele>
        <time>2016-10-11T08:20:04Z</time>
      </trkpt>
      <trkpt lat="42.97272" lon="0.08001">
        <ele>1571.6</ele>
        <time>2016-10-11T08:20:19Z</time>
      </trkpt>
      <trkpt lat="42.97271" lon="0.08">
        <ele>1574.39</ele>
        <time>2016-10-11T08:20:44Z</time>
      </trkpt>
      <trkpt lat="42.97273" lon="0.08002">
        <ele>1574.42</ele>
        <time>2016-10-11T08:21:14Z</time>
      </trkpt>
      <trkpt lat="42.9727" lon="0.08001">
        <ele>1576.55</ele>
        <time>2016-10-11T08:21:27Z</time>
      </trkpt>
      <trkpt lat="42.97267" lon="0.08001">
        <ele>1578.14</ele>
        <time>2016-10-11T08:21:37Z</time>
      </trkpt>
      <trkpt lat="42.97268" lon="0.07995">
        <ele>1578.04</ele>
        <time>2016-10-11T08:21:51Z</time>
      </trkpt>
      <trkpt lat="42.97265" lon="0.07988">
        <ele>1580.66</ele>
        <time>2016-10-11T08:22:05Z</time>
      </trkpt>
      <trkpt lat="42.97264" lon="0.07987">
        <ele>1582.24</ele>
        <time>2016-10-11T08:22:10Z</time>
      </trkpt>
      <trkpt lat="42.97263" lon="0.07983">
        <ele>1582.94</ele>
        <time>2016-10-11T08:22:28Z</time>
      </trkpt>
      <trkpt lat="42.97264" lon="0.0798">
        <ele>1584.35</ele>
        <time>2016-10-11T08:22:39Z</time>
      </trkpt>
      <trkpt lat="42.97263" lon="0.07976">
        <ele>1585.4</ele>
        <time>2016-10-11T08:22:54Z</time>
      </trkpt>
      <trkpt lat="42.97259" lon="0.0797">
        <ele>1587.69</ele>
        <time>2016-10-11T08:23:09Z</time>
      </trkpt>
      <trkpt lat="42.97258" lon="0.07967">
        <ele>1588.94</ele>
        <time>2016-10-11T08:23:16Z</time>
      </trkpt>
      <trkpt lat="42.97256" lon="0.07959">
        <ele>1590.17</ele>
        <time>2016-10-11T08:23:30Z</time>
      </trkpt>
      <trkpt lat="42.97252" lon="0.0795">
        <ele>1592.39</ele>
        <time>2016-10-11T08:23:47Z</time>
      </trkpt>
      <trkpt lat="42.97251" lon="0.07942">
        <ele>1594.9</ele>
        <time>2016-10-11T08:24:04Z</time>
      </trkpt>
      <trkpt lat="42.97248" lon="0.07937">
        <ele>1595.87</ele>
        <time>2016-10-11T08:24:18Z</time>
      </trkpt>
      <trkpt lat="42.97247" lon="0.07932">
        <ele>1597.11</ele>
        <time>2016-10-11T08:24:24Z</time>
      </trkpt>
      <trkpt lat="42.97247" lon="0.07929">
        <ele>1599.28</ele>
        <time>2016-10-11T08:24:28Z</time>
      </trkpt>
      <trkpt lat="42.97247" lon="0.07927">
        <ele>1599.04</ele>
        <time>2016-10-11T08:24:46Z</time>
      </trkpt>
      <trkpt lat="42.97248" lon="0.07919">
        <ele>1599.09</ele>
        <time>2016-10-11T08:25:01Z</time>
      </trkpt>
      <trkpt lat="42.97249" lon="0.07909">
        <ele>1598.93</ele>
        <time>2016-10-11T08:25:15Z</time>
      </trkpt>
      <trkpt lat="42.97248" lon="0.07898">
        <ele>1599.97</ele>
        <time>2016-10-11T08:25:26Z</time>
      </trkpt>
      <trkpt lat="42.97245" lon="0.07887">
        <ele>1600.92</ele>
        <time>2016-10-11T08:25:40Z</time>
      </trkpt>
      <trkpt lat="42.97243" lon="0.07887">
        <ele>1600.93</ele>
        <time>2016-10-11T08:25:43Z</time>
      </trkpt>
      <trkpt lat="42.97241" lon="0.07883">
        <ele>1600.83</ele>
        <time>2016-10-11T08:25:57Z</time>
      </trkpt>
      <trkpt lat="42.97238" lon="0.07878">
        <ele>1602.73</ele>
        <time>2016-10-11T08:26:09Z</time>
      </trkpt>
      <trkpt lat="42.97233" lon="0.07871">
        <ele>1602.78</ele>
        <time>2016-10-11T08:26:22Z</time>
      </trkpt>
      <trkpt lat="42.97233" lon="0.07869">
        <ele>1604.57</ele>
        <time>2016-10-11T08:26:26Z</time>
      </trkpt>
      <trkpt lat="42.9723" lon="0.07863">
        <ele>1604.52</ele>
        <time>2016-10-11T08:26:37Z</time>
      </trkpt>
      <trkpt lat="42.97227" lon="0.07858">
        <ele>1605.59</ele>
        <time>2016-10-11T08:26:47Z</time>
      </trkpt>
      <trkpt lat="42.97226" lon="0.07851">
        <ele>1605.6</ele>
        <time>2016-10-11T08:27:01Z</time>
      </trkpt>
      <trkpt lat="42.97224" lon="0.07848">
        <ele>1606.94</ele>
        <time>2016-10-11T08:27:10Z</time>
      </trkpt>
      <trkpt lat="42.97223" lon="0.07844">
        <ele>1606.96</ele>
        <time>2016-10-11T08:27:16Z</time>
      </trkpt>
      <trkpt lat="42.9722" lon="0.0784">
        <ele>1608.37</ele>
        <time>2016-10-11T08:27:25Z</time>
      </trkpt>
      <trkpt lat="42.97215" lon="0.07833">
        <ele>1609.16</ele>
        <time>2016-10-11T08:27:37Z</time>
      </trkpt>
      <trkpt lat="42.97212" lon="0.07827">
        <ele>1611.37</ele>
        <time>2016-10-11T08:27:50Z</time>
      </trkpt>
      <trkpt lat="42.97207" lon="0.07827">
        <ele>1612.2</ele>
        <time>2016-10-11T08:27:57Z</time>
      </trkpt>
      <trkpt lat="42.972" lon="0.07824">
        <ele>1612.14</ele>
        <time>2016-10-11T08:28:06Z</time>
      </trkpt>
      <trkpt lat="42.97194" lon="0.07816">
        <ele>1613.05</ele>
        <time>2016-10-11T08:28:18Z</time>
      </trkpt>
      <trkpt lat="42.97189" lon="0.0781">
        <ele>1614.82</ele>
        <time>2016-10-11T08:28:29Z</time>
      </trkpt>
      <trkpt lat="42.97185" lon="0.07801">
        <ele>1615.68</ele>
        <time>2016-10-11T08:28:43Z</time>
      </trkpt>
      <trkpt lat="42.97183" lon="0.07798">
        <ele>1618.38</ele>
        <time>2016-10-11T08:28:52Z</time>
      </trkpt>
      <trkpt lat="42.97182" lon="0.07798">
        <ele>1618.35</ele>
        <time>2016-10-11T08:29:07Z</time>
      </trkpt>
      <trkpt lat="42.97179" lon="0.07796">
        <ele>1618.41</ele>
        <time>2016-10-11T08:29:13Z</time>
      </trkpt>
      <trkpt lat="42.97176" lon="0.07794">
        <ele>1619.22</ele>
        <time>2016-10-11T08:29:21Z</time>
      </trkpt>
      <trkpt lat="42.97173" lon="0.07791">
        <ele>1619.2</ele>
        <time>2016-10-11T08:29:26Z</time>
      </trkpt>
      <trkpt lat="42.97167" lon="0.07785">
        <ele>1620.09</ele>
        <time>2016-10-11T08:29:38Z</time>
      </trkpt>
      <trkpt lat="42.97165" lon="0.07784">
        <ele>1621.09</ele>
        <time>2016-10-11T08:29:54Z</time>
      </trkpt>
      <trkpt lat="42.97161" lon="0.07781">
        <ele>1622.23</ele>
        <time>2016-10-11T08:30:17Z</time>
      </trkpt>
      <trkpt lat="42.97158" lon="0.07773">
        <ele>1623.98</ele>
        <time>2016-10-11T08:30:28Z</time>
      </trkpt>
      <trkpt lat="42.97155" lon="0.07766">
        <ele>1626.14</ele>
        <time>2016-10-11T08:30:38Z</time>
      </trkpt>
      <trkpt lat="42.97153" lon="0.07763">
        <ele>1627.38</ele>
        <time>2016-10-11T08:30:47Z</time>
      </trkpt>
      <trkpt lat="42.9715" lon="0.07758">
        <ele>1629.23</ele>
        <time>2016-10-11T08:31:03Z</time>
      </trkpt>
      <trkpt lat="42.9715" lon="0.07754">
        <ele>1629.27</ele>
        <time>2016-10-11T08:31:27Z</time>
      </trkpt>
      <trkpt lat="42.97148" lon="0.07748">
        <ele>1630.18</ele>
        <time>2016-10-11T08:31:41Z</time>
      </trkpt>
      <trkpt lat="42.97145" lon="0.07744">
        <ele>1632.07</ele>
        <time>2016-10-11T08:31:52Z</time>
      </trkpt>
      <trkpt lat="42.97145" lon="0.07743">
        <ele>1632.01</ele>
        <time>2016-10-11T08:31:53Z</time>
      </trkpt>
      <trkpt lat="42.97145" lon="0.07733">
        <ele>1632</ele>
        <time>2016-10-11T08:32:04Z</time>
      </trkpt>
      <trkpt lat="42.97145" lon="0.07723">
        <ele>1633.06</ele>
        <time>2016-10-11T08:32:14Z</time>
      </trkpt>
      <trkpt lat="42.97144" lon="0.07709">
        <ele>1633.04</ele>
        <time>2016-10-11T08:32:26Z</time>
      </trkpt>
      <trkpt lat="42.97143" lon="0.07704">
        <ele>1630.77</ele>
        <time>2016-10-11T08:32:30Z</time>
      </trkpt>
      <trkpt lat="42.97142" lon="0.07698">
        <ele>1630.82</ele>
        <time>2016-10-11T08:32:41Z</time>
      </trkpt>
      <trkpt lat="42.97139" lon="0.07685">
        <ele>1630.86</ele>
        <time>2016-10-11T08:32:51Z</time>
      </trkpt>
      <trkpt lat="42.97137" lon="0.07678">
        <ele>1629.95</ele>
        <time>2016-10-11T08:33:01Z</time>
      </trkpt>
      <trkpt lat="42.97135" lon="0.07672">
        <ele>1629.95</ele>
        <time>2016-10-11T08:33:05Z</time>
      </trkpt>
      <trkpt lat="42.97131" lon="0.07666">
        <ele>1629.97</ele>
        <time>2016-10-11T08:33:11Z</time>
      </trkpt>
      <trkpt lat="42.97129" lon="0.07665">
        <ele>1629.98</ele>
        <time>2016-10-11T08:33:13Z</time>
      </trkpt>
      <trkpt lat="42.97124" lon="0.07658">
        <ele>1630.01</ele>
        <time>2016-10-11T08:33:26Z</time>
      </trkpt>
      <trkpt lat="42.97121" lon="0.07651">
        <ele>1630.1</ele>
        <time>2016-10-11T08:33:43Z</time>
      </trkpt>
      <trkpt lat="42.9712" lon="0.07648">
        <ele>1630.16</ele>
        <time>2016-10-11T08:34:05Z</time>
      </trkpt>
      <trkpt lat="42.9712" lon="0.07648">
        <ele>1630.27</ele>
        <time>2016-10-11T08:34:39Z</time>
      </trkpt>
      <trkpt lat="42.97118" lon="0.07647">
        <ele>1630.35</ele>
        <time>2016-10-11T08:35:05Z</time>
      </trkpt>
      <trkpt lat="42.97118" lon="0.07646">
        <ele>1630.4</ele>
        <time>2016-10-11T08:35:35Z</time>
      </trkpt>
      <trkpt lat="42.97118" lon="0.07645">
        <ele>1630.45</ele>
        <time>2016-10-11T08:36:10Z</time>
      </trkpt>
      <trkpt lat="42.9712" lon="0.07645">
        <ele>1630.49</ele>
        <time>2016-10-11T08:36:39Z</time>
      </trkpt>
      <trkpt lat="42.97118" lon="0.07643">
        <ele>1630.54</ele>
        <time>2016-10-11T08:37:02Z</time>
      </trkpt>
      <trkpt lat="42.97118" lon="0.07643">
        <ele>1630.6</ele>
        <time>2016-10-11T08:37:39Z</time>
      </trkpt>
      <trkpt lat="42.97118" lon="0.07643">
        <ele>1630.65</ele>
        <time>2016-10-11T08:38:17Z</time>
      </trkpt>
      <trkpt lat="42.97116" lon="0.07643">
        <ele>1630.7</ele>
        <time>2016-10-11T08:38:55Z</time>
      </trkpt>
      <trkpt lat="42.97115" lon="0.07644">
        <ele>1630.74</ele>
        <time>2016-10-11T08:39:25Z</time>
      </trkpt>
      <trkpt lat="42.97116" lon="0.07646">
        <ele>1630.78</ele>
        <time>2016-10-11T08:39:54Z</time>
      </trkpt>
      <trkpt lat="42.97117" lon="0.07647">
        <ele>1630.82</ele>
        <time>2016-10-11T08:40:15Z</time>
      </trkpt>
      <trkpt lat="42.97118" lon="0.07648">
        <ele>1630.87</ele>
        <time>2016-10-11T08:40:43Z</time>
      </trkpt>
      <trkpt lat="42.97118" lon="0.07647">
        <ele>1630.95</ele>
        <time>2016-10-11T08:41:21Z</time>
      </trkpt>
      <trkpt lat="42.97118" lon="0.07648">
        <ele>1631.01</ele>
        <time>2016-10-11T08:42:00Z</time>
      </trkpt>
      <trkpt lat="42.97118" lon="0.07648">
        <ele>1631.06</ele>
        <time>2016-10-11T08:42:34Z</time>
      </trkpt>
      <trkpt lat="42.97118" lon="0.07647">
        <ele>1631.11</ele>
        <time>2016-10-11T08:43:06Z</time>
      </trkpt>
      <trkpt lat="42.97117" lon="0.07649">
        <ele>1631.15</ele>
        <time>2016-10-11T08:43:37Z</time>
      </trkpt>
      <trkpt lat="42.97115" lon="0.07647">
        <ele>1631.18</ele>
        <time>2016-10-11T08:43:56Z</time>
      </trkpt>
      <trkpt lat="42.97116" lon="0.07647">
        <ele>1630.29</ele>
        <time>2016-10-11T08:44:17Z</time>
      </trkpt>
      <trkpt lat="42.97117" lon="0.07648">
        <ele>1630.35</ele>
        <time>2016-10-11T08:45:08Z</time>
      </trkpt>
      <trkpt lat="42.97117" lon="0.07648">
        <ele>1630.5</ele>
        <time>2016-10-11T08:46:21Z</time>
      </trkpt>
      <trkpt lat="42.97118" lon="0.07649">
        <ele>1630.68</ele>
        <time>2016-10-11T08:47:14Z</time>
      </trkpt>
      <trkpt lat="42.97117" lon="0.07649">
        <ele>1631</ele>
        <time>2016-10-11T08:48:30Z</time>
      </trkpt>
      <trkpt lat="42.97117" lon="0.07649">
        <ele>1630.52</ele>
        <time>2016-10-11T08:49:29Z</time>
      </trkpt>
      <trkpt lat="42.97116" lon="0.07649">
        <ele>1630.61</ele>
        <time>2016-10-11T08:49:48Z</time>
      </trkpt>
      <trkpt lat="42.9712" lon="0.0765">
        <ele>1630.63</ele>
        <time>2016-10-11T08:49:53Z</time>
      </trkpt>
      <trkpt lat="42.97128" lon="0.0766">
        <ele>1630.69</ele>
        <time>2016-10-11T08:50:05Z</time>
      </trkpt>
      <trkpt lat="42.97129" lon="0.07663">
        <ele>1630.77</ele>
        <time>2016-10-11T08:50:20Z</time>
      </trkpt>
      <trkpt lat="42.97125" lon="0.07659">
        <ele>1630.86</ele>
        <time>2016-10-11T08:50:33Z</time>
      </trkpt>
      <trkpt lat="42.97123" lon="0.07658">
        <ele>1628.6</ele>
        <time>2016-10-11T08:50:48Z</time>
      </trkpt>
      <trkpt lat="42.97123" lon="0.07658">
        <ele>1631.52</ele>
        <time>2016-10-11T08:50:51Z</time>
      </trkpt>
      <trkpt lat="42.97128" lon="0.07662">
        <ele>1631.62</ele>
        <time>2016-10-11T08:51:08Z</time>
      </trkpt>
      <trkpt lat="42.97131" lon="0.07667">
        <ele>1631.65</ele>
        <time>2016-10-11T08:51:14Z</time>
      </trkpt>
      <trkpt lat="42.97134" lon="0.07674">
        <ele>1631.68</ele>
        <time>2016-10-11T08:51:20Z</time>
      </trkpt>
      <trkpt lat="42.97137" lon="0.07679">
        <ele>1631.68</ele>
        <time>2016-10-11T08:51:24Z</time>
      </trkpt>
      <trkpt lat="42.97139" lon="0.07683">
        <ele>1631.76</ele>
        <time>2016-10-11T08:51:27Z</time>
      </trkpt>
      <trkpt lat="42.9714" lon="0.07687">
        <ele>1631.71</ele>
        <time>2016-10-11T08:51:30Z</time>
      </trkpt>
      <trkpt lat="42.97142" lon="0.07691">
        <ele>1631.81</ele>
        <time>2016-10-11T08:51:33Z</time>
      </trkpt>
      <trkpt lat="42.97144" lon="0.07703">
        <ele>1631.95</ele>
        <time>2016-10-11T08:51:44Z</time>
      </trkpt>
      <trkpt lat="42.97146" lon="0.07706">
        <ele>1631.95</ele>
        <time>2016-10-11T08:51:51Z</time>
      </trkpt>
      <trkpt lat="42.97147" lon="0.07717">
        <ele>1631.92</ele>
        <time>2016-10-11T08:52:00Z</time>
      </trkpt>
      <trkpt lat="42.97149" lon="0.07725">
        <ele>1632.85</ele>
        <time>2016-10-11T08:52:07Z</time>
      </trkpt>
      <trkpt lat="42.97149" lon="0.07729">
        <ele>1632.87</ele>
        <time>2016-10-11T08:52:10Z</time>
      </trkpt>
      <trkpt lat="42.97148" lon="0.07732">
        <ele>1632.9</ele>
        <time>2016-10-11T08:52:13Z</time>
      </trkpt>
      <trkpt lat="42.97148" lon="0.07734">
        <ele>1632.9</ele>
        <time>2016-10-11T08:52:15Z</time>
      </trkpt>
      <trkpt lat="42.97148" lon="0.07747">
        <ele>1633.93</ele>
        <time>2016-10-11T08:52:27Z</time>
      </trkpt>
      <trkpt lat="42.9715" lon="0.07754">
        <ele>1631.57</ele>
        <time>2016-10-11T08:52:42Z</time>
      </trkpt>
      <trkpt lat="42.97151" lon="0.0776">
        <ele>1630.74</ele>
        <time>2016-10-11T08:52:54Z</time>
      </trkpt>
      <trkpt lat="42.97151" lon="0.07759">
        <ele>1628.86</ele>
        <time>2016-10-11T08:53:14Z</time>
      </trkpt>
      <trkpt lat="42.97155" lon="0.07768">
        <ele>1625.69</ele>
        <time>2016-10-11T08:53:30Z</time>
      </trkpt>
      <trkpt lat="42.97155" lon="0.07768">
        <ele>1625.7</ele>
        <time>2016-10-11T08:53:31Z</time>
      </trkpt>
      <trkpt lat="42.97159" lon="0.07775">
        <ele>1624.19</ele>
        <time>2016-10-11T08:53:45Z</time>
      </trkpt>
      <trkpt lat="42.97165" lon="0.0778">
        <ele>1623.45</ele>
        <time>2016-10-11T08:53:53Z</time>
      </trkpt>
      <trkpt lat="42.97173" lon="0.0779">
        <ele>1620.23</ele>
        <time>2016-10-11T08:54:07Z</time>
      </trkpt>
      <trkpt lat="42.97177" lon="0.07793">
        <ele>1618.96</ele>
        <time>2016-10-11T08:54:15Z</time>
      </trkpt>
      <trkpt lat="42.97185" lon="0.07797">
        <ele>1619</ele>
        <time>2016-10-11T08:54:29Z</time>
      </trkpt>
      <trkpt lat="42.97189" lon="0.07802">
        <ele>1618.38</ele>
        <time>2016-10-11T08:54:43Z</time>
      </trkpt>
      <trkpt lat="42.97192" lon="0.07811">
        <ele>1616.42</ele>
        <time>2016-10-11T08:54:59Z</time>
      </trkpt>
      <trkpt lat="42.97198" lon="0.07818">
        <ele>1613.95</ele>
        <time>2016-10-11T08:55:12Z</time>
      </trkpt>
      <trkpt lat="42.97203" lon="0.07825">
        <ele>1613.99</ele>
        <time>2016-10-11T08:55:21Z</time>
      </trkpt>
      <trkpt lat="42.97205" lon="0.07827">
        <ele>1613.1</ele>
        <time>2016-10-11T08:55:24Z</time>
      </trkpt>
      <trkpt lat="42.97214" lon="0.07828">
        <ele>1612.34</ele>
        <time>2016-10-11T08:55:38Z</time>
      </trkpt>
      <trkpt lat="42.9722" lon="0.07834">
        <ele>1611.42</ele>
        <time>2016-10-11T08:55:50Z</time>
      </trkpt>
      <trkpt lat="42.97224" lon="0.07842">
        <ele>1610.41</ele>
        <time>2016-10-11T08:56:00Z</time>
      </trkpt>
      <trkpt lat="42.97227" lon="0.07849">
        <ele>1608.71</ele>
        <time>2016-10-11T08:56:08Z</time>
      </trkpt>
      <trkpt lat="42.97229" lon="0.07853">
        <ele>1608.74</ele>
        <time>2016-10-11T08:56:12Z</time>
      </trkpt>
      <trkpt lat="42.9723" lon="0.07856">
        <ele>1608.74</ele>
        <time>2016-10-11T08:56:15Z</time>
      </trkpt>
      <trkpt lat="42.97232" lon="0.07865">
        <ele>1607.97</ele>
        <time>2016-10-11T08:56:24Z</time>
      </trkpt>
      <trkpt lat="42.97236" lon="0.07872">
        <ele>1606.39</ele>
        <time>2016-10-11T08:56:37Z</time>
      </trkpt>
      <trkpt lat="42.97237" lon="0.07877">
        <ele>1605.54</ele>
        <time>2016-10-11T08:56:45Z</time>
      </trkpt>
      <trkpt lat="42.97238" lon="0.07879">
        <ele>1604</ele>
        <time>2016-10-11T08:56:48Z</time>
      </trkpt>
      <trkpt lat="42.97244" lon="0.07885">
        <ele>1603.43</ele>
        <time>2016-10-11T08:57:01Z</time>
      </trkpt>
      <trkpt lat="42.97247" lon="0.07891">
        <ele>1602.71</ele>
        <time>2016-10-11T08:57:17Z</time>
      </trkpt>
      <trkpt lat="42.97251" lon="0.07899">
        <ele>1602.79</ele>
        <time>2016-10-11T08:57:32Z</time>
      </trkpt>
      <trkpt lat="42.97251" lon="0.07903">
        <ele>1601.97</ele>
        <time>2016-10-11T08:57:35Z</time>
      </trkpt>
      <trkpt lat="42.97252" lon="0.07907">
        <ele>1601.94</ele>
        <time>2016-10-11T08:57:38Z</time>
      </trkpt>
      <trkpt lat="42.97251" lon="0.07912">
        <ele>1601.97</ele>
        <time>2016-10-11T08:57:42Z</time>
      </trkpt>
      <trkpt lat="42.97251" lon="0.07914">
        <ele>1601.88</ele>
        <time>2016-10-11T08:57:44Z</time>
      </trkpt>
      <trkpt lat="42.97251" lon="0.07924">
        <ele>1600.99</ele>
        <time>2016-10-11T08:57:51Z</time>
      </trkpt>
      <trkpt lat="42.97253" lon="0.07939">
        <ele>1599.33</ele>
        <time>2016-10-11T08:58:05Z</time>
      </trkpt>
      <trkpt lat="42.97257" lon="0.07949">
        <ele>1597.61</ele>
        <time>2016-10-11T08:58:21Z</time>
      </trkpt>
      <trkpt lat="42.97257" lon="0.07958">
        <ele>1596.04</ele>
        <time>2016-10-11T08:58:37Z</time>
      </trkpt>
      <trkpt lat="42.97259" lon="0.07961">
        <ele>1595.09</ele>
        <time>2016-10-11T08:58:41Z</time>
      </trkpt>
      <trkpt lat="42.9726" lon="0.07963">
        <ele>1593.84</ele>
        <time>2016-10-11T08:58:46Z</time>
      </trkpt>
      <trkpt lat="42.97258" lon="0.07968">
        <ele>1591.94</ele>
        <time>2016-10-11T08:58:59Z</time>
      </trkpt>
      <trkpt lat="42.97263" lon="0.07975">
        <ele>1591.21</ele>
        <time>2016-10-11T08:59:10Z</time>
      </trkpt>
      <trkpt lat="42.97264" lon="0.07979">
        <ele>1589.62</ele>
        <time>2016-10-11T08:59:19Z</time>
      </trkpt>
      <trkpt lat="42.97264" lon="0.07983">
        <ele>1589.13</ele>
        <time>2016-10-11T08:59:40Z</time>
      </trkpt>
      <trkpt lat="42.97266" lon="0.07988">
        <ele>1587.03</ele>
        <time>2016-10-11T08:59:56Z</time>
      </trkpt>
      <trkpt lat="42.97268" lon="0.07988">
        <ele>1584.98</ele>
        <time>2016-10-11T09:00:02Z</time>
      </trkpt>
      <trkpt lat="42.97269" lon="0.07989">
        <ele>1584.28</ele>
        <time>2016-10-11T09:00:24Z</time>
      </trkpt>
      <trkpt lat="42.97272" lon="0.07994">
        <ele>1582.67</ele>
        <time>2016-10-11T09:00:39Z</time>
      </trkpt>
      <trkpt lat="42.97276" lon="0.07994">
        <ele>1581.61</ele>
        <time>2016-10-11T09:00:58Z</time>
      </trkpt>
      <trkpt lat="42.97279" lon="0.07992">
        <ele>1580.94</ele>
        <time>2016-10-11T09:01:16Z</time>
      </trkpt>
      <trkpt lat="42.97283" lon="0.0799">
        <ele>1579.12</ele>
        <time>2016-10-11T09:01:38Z</time>
      </trkpt>
      <trkpt lat="42.97285" lon="0.07993">
        <ele>1577.03</ele>
        <time>2016-10-11T09:01:54Z</time>
      </trkpt>
      <trkpt lat="42.97289" lon="0.07995">
        <ele>1577.23</ele>
        <time>2016-10-11T09:02:11Z</time>
      </trkpt>
      <trkpt lat="42.97289" lon="0.07994">
        <ele>1579.71</ele>
        <time>2016-10-11T09:02:24Z</time>
      </trkpt>
      <trkpt lat="42.97289" lon="0.07994">
        <ele>1579.88</ele>
        <time>2016-10-11T09:02:49Z</time>
      </trkpt>
      <trkpt lat="42.97283" lon="0.07991">
        <ele>1580.03</ele>
        <time>2016-10-11T09:03:13Z</time>
      </trkpt>
      <trkpt lat="42.97282" lon="0.07993">
        <ele>1577.68</ele>
        <time>2016-10-11T09:03:22Z</time>
      </trkpt>
      <trkpt lat="42.97279" lon="0.07998">
        <ele>1576.07</ele>
        <time>2016-10-11T09:03:43Z</time>
      </trkpt>
      <trkpt lat="42.97278" lon="0.08003">
        <ele>1575.15</ele>
        <time>2016-10-11T09:03:58Z</time>
      </trkpt>
      <trkpt lat="42.97279" lon="0.08007">
        <ele>1574.47</ele>
        <time>2016-10-11T09:04:21Z</time>
      </trkpt>
      <trkpt lat="42.97282" lon="0.08012">
        <ele>1574.48</ele>
        <time>2016-10-11T09:04:34Z</time>
      </trkpt>
      <trkpt lat="42.97283" lon="0.08012">
        <ele>1578.28</ele>
        <time>2016-10-11T09:04:37Z</time>
      </trkpt>
      <trkpt lat="42.97284" lon="0.08012">
        <ele>1578.31</ele>
        <time>2016-10-11T09:04:38Z</time>
      </trkpt>
      <trkpt lat="42.97285" lon="0.08019">
        <ele>1578.32</ele>
        <time>2016-10-11T09:04:51Z</time>
      </trkpt>
      <trkpt lat="42.97287" lon="0.08029">
        <ele>1578.27</ele>
        <time>2016-10-11T09:05:05Z</time>
      </trkpt>
      <trkpt lat="42.97288" lon="0.08031">
        <ele>1575.74</ele>
        <time>2016-10-11T09:05:07Z</time>
      </trkpt>
      <trkpt lat="42.97289" lon="0.08041">
        <ele>1575.76</ele>
        <time>2016-10-11T09:05:18Z</time>
      </trkpt>
      <trkpt lat="42.97289" lon="0.08044">
        <ele>1574.44</ele>
        <time>2016-10-11T09:05:22Z</time>
      </trkpt>
      <trkpt lat="42.97292" lon="0.08054">
        <ele>1572.48</ele>
        <time>2016-10-11T09:05:34Z</time>
      </trkpt>
      <trkpt lat="42.97294" lon="0.08057">
        <ele>1572.49</ele>
        <time>2016-10-11T09:05:38Z</time>
      </trkpt>
      <trkpt lat="42.97295" lon="0.0806">
        <ele>1572.52</ele>
        <time>2016-10-11T09:05:41Z</time>
      </trkpt>
      <trkpt lat="42.97297" lon="0.08066">
        <ele>1570.27</ele>
        <time>2016-10-11T09:05:56Z</time>
      </trkpt>
      <trkpt lat="42.973" lon="0.08073">
        <ele>1568.7</ele>
        <time>2016-10-11T09:06:13Z</time>
      </trkpt>
      <trkpt lat="42.97301" lon="0.08075">
        <ele>1567.38</ele>
        <time>2016-10-11T09:06:16Z</time>
      </trkpt>
      <trkpt lat="42.97303" lon="0.08077">
        <ele>1567.41</ele>
        <time>2016-10-11T09:06:19Z</time>
      </trkpt>
      <trkpt lat="42.97305" lon="0.0808">
        <ele>1567.38</ele>
        <time>2016-10-11T09:06:22Z</time>
      </trkpt>
      <trkpt lat="42.97306" lon="0.08083">
        <ele>1567.37</ele>
        <time>2016-10-11T09:06:25Z</time>
      </trkpt>
      <trkpt lat="42.97305" lon="0.0809">
        <ele>1566.26</ele>
        <time>2016-10-11T09:06:37Z</time>
      </trkpt>
      <trkpt lat="42.97305" lon="0.08091">
        <ele>1566.27</ele>
        <time>2016-10-11T09:06:38Z</time>
      </trkpt>
      <trkpt lat="42.97306" lon="0.08101">
        <ele>1566.33</ele>
        <time>2016-10-11T09:06:48Z</time>
      </trkpt>
      <trkpt lat="42.97307" lon="0.08105">
        <ele>1566.41</ele>
        <time>2016-10-11T09:06:51Z</time>
      </trkpt>
      <trkpt lat="42.97306" lon="0.08116">
        <ele>1566.42</ele>
        <time>2016-10-11T09:07:05Z</time>
      </trkpt>
      <trkpt lat="42.97304" lon="0.08122">
        <ele>1565.46</ele>
        <time>2016-10-11T09:07:15Z</time>
      </trkpt>
      <trkpt lat="42.97303" lon="0.08133">
        <ele>1565.42</ele>
        <time>2016-10-11T09:07:26Z</time>
      </trkpt>
      <trkpt lat="42.97302" lon="0.08145">
        <ele>1565.41</ele>
        <time>2016-10-11T09:07:37Z</time>
      </trkpt>
      <trkpt lat="42.97301" lon="0.0815">
        <ele>1565.37</ele>
        <time>2016-10-11T09:07:42Z</time>
      </trkpt>
      <trkpt lat="42.97301" lon="0.08155">
        <ele>1565.35</ele>
        <time>2016-10-11T09:07:47Z</time>
      </trkpt>
      <trkpt lat="42.973" lon="0.08166">
        <ele>1563.64</ele>
        <time>2016-10-11T09:07:56Z</time>
      </trkpt>
      <trkpt lat="42.97303" lon="0.08177">
        <ele>1563.62</ele>
        <time>2016-10-11T09:08:08Z</time>
      </trkpt>
      <trkpt lat="42.97302" lon="0.08187">
        <ele>1562.51</ele>
        <time>2016-10-11T09:08:18Z</time>
      </trkpt>
      <trkpt lat="42.97303" lon="0.0819">
        <ele>1562.49</ele>
        <time>2016-10-11T09:08:23Z</time>
      </trkpt>
      <trkpt lat="42.97303" lon="0.08196">
        <ele>1561.45</ele>
        <time>2016-10-11T09:08:30Z</time>
      </trkpt>
      <trkpt lat="42.973" lon="0.08205">
        <ele>1560.44</ele>
        <time>2016-10-11T09:08:44Z</time>
      </trkpt>
      <trkpt lat="42.97299" lon="0.08209">
        <ele>1560.44</ele>
        <time>2016-10-11T09:08:48Z</time>
      </trkpt>
      <trkpt lat="42.97297" lon="0.0822">
        <ele>1559.5</ele>
        <time>2016-10-11T09:08:59Z</time>
      </trkpt>
      <trkpt lat="42.97295" lon="0.08232">
        <ele>1559.51</ele>
        <time>2016-10-11T09:09:09Z</time>
      </trkpt>
      <trkpt lat="42.97295" lon="0.08233">
        <ele>1559.52</ele>
        <time>2016-10-11T09:09:10Z</time>
      </trkpt>
      <trkpt lat="42.97295" lon="0.08242">
        <ele>1559.61</ele>
        <time>2016-10-11T09:09:18Z</time>
      </trkpt>
      <trkpt lat="42.97293" lon="0.08252">
        <ele>1559.68</ele>
        <time>2016-10-11T09:09:30Z</time>
      </trkpt>
      <trkpt lat="42.97292" lon="0.08263">
        <ele>1559.6</ele>
        <time>2016-10-11T09:09:41Z</time>
      </trkpt>
      <trkpt lat="42.97292" lon="0.08274">
        <ele>1559.6</ele>
        <time>2016-10-11T09:09:52Z</time>
      </trkpt>
      <trkpt lat="42.97292" lon="0.08276">
        <ele>1559.59</ele>
        <time>2016-10-11T09:09:55Z</time>
      </trkpt>
      <trkpt lat="42.97291" lon="0.08286">
        <ele>1558.68</ele>
        <time>2016-10-11T09:10:03Z</time>
      </trkpt>
      <trkpt lat="42.97291" lon="0.08294">
        <ele>1558.69</ele>
        <time>2016-10-11T09:10:12Z</time>
      </trkpt>
      <trkpt lat="42.97292" lon="0.08304">
        <ele>1557.83</ele>
        <time>2016-10-11T09:10:23Z</time>
      </trkpt>
      <trkpt lat="42.97292" lon="0.08309">
        <ele>1557.81</ele>
        <time>2016-10-11T09:10:28Z</time>
      </trkpt>
      <trkpt lat="42.97292" lon="0.08321">
        <ele>1556.75</ele>
        <time>2016-10-11T09:10:40Z</time>
      </trkpt>
      <trkpt lat="42.97294" lon="0.08333">
        <ele>1555.69</ele>
        <time>2016-10-11T09:10:54Z</time>
      </trkpt>
      <trkpt lat="42.97294" lon="0.08343">
        <ele>1555.74</ele>
        <time>2016-10-11T09:11:06Z</time>
      </trkpt>
      <trkpt lat="42.97293" lon="0.08351">
        <ele>1554.78</ele>
        <time>2016-10-11T09:11:19Z</time>
      </trkpt>
      <trkpt lat="42.97295" lon="0.08357">
        <ele>1554.82</ele>
        <time>2016-10-11T09:11:32Z</time>
      </trkpt>
      <trkpt lat="42.97298" lon="0.08366">
        <ele>1554.77</ele>
        <time>2016-10-11T09:11:43Z</time>
      </trkpt>
      <trkpt lat="42.97299" lon="0.08373">
        <ele>1554.74</ele>
        <time>2016-10-11T09:11:56Z</time>
      </trkpt>
      <trkpt lat="42.973" lon="0.08376">
        <ele>1557.07</ele>
        <time>2016-10-11T09:12:03Z</time>
      </trkpt>
      <trkpt lat="42.973" lon="0.08379">
        <ele>1557.86</ele>
        <time>2016-10-11T09:12:20Z</time>
      </trkpt>
      <trkpt lat="42.973" lon="0.08383">
        <ele>1557.77</ele>
        <time>2016-10-11T09:12:48Z</time>
      </trkpt>
      <trkpt lat="42.97298" lon="0.0839">
        <ele>1557.72</ele>
        <time>2016-10-11T09:12:58Z</time>
      </trkpt>
      <trkpt lat="42.97293" lon="0.08395">
        <ele>1557.7</ele>
        <time>2016-10-11T09:13:14Z</time>
      </trkpt>
      <trkpt lat="42.97291" lon="0.08399">
        <ele>1558.54</ele>
        <time>2016-10-11T09:13:26Z</time>
      </trkpt>
      <trkpt lat="42.97291" lon="0.08397">
        <ele>1558.4</ele>
        <time>2016-10-11T09:14:03Z</time>
      </trkpt>
      <trkpt lat="42.97291" lon="0.08396">
        <ele>1558.37</ele>
        <time>2016-10-11T09:14:10Z</time>
      </trkpt>
      <trkpt lat="42.97292" lon="0.08393">
        <ele>1558.33</ele>
        <time>2016-10-11T09:14:23Z</time>
      </trkpt>
      <trkpt lat="42.97292" lon="0.08394">
        <ele>1558.29</ele>
        <time>2016-10-11T09:14:40Z</time>
      </trkpt>
      <trkpt lat="42.97292" lon="0.08391">
        <ele>1558.24</ele>
        <time>2016-10-11T09:14:52Z</time>
      </trkpt>
      <trkpt lat="42.97294" lon="0.08391">
        <ele>1558.22</ele>
        <time>2016-10-11T09:15:02Z</time>
      </trkpt>
      <trkpt lat="42.97292" lon="0.0839">
        <ele>1558.16</ele>
        <time>2016-10-11T09:15:24Z</time>
      </trkpt>
      <trkpt lat="42.97292" lon="0.08393">
        <ele>1558.11</ele>
        <time>2016-10-11T09:15:42Z</time>
      </trkpt>
      <trkpt lat="42.97289" lon="0.08397">
        <ele>1558.06</ele>
        <time>2016-10-11T09:16:03Z</time>
      </trkpt>
      <trkpt lat="42.97287" lon="0.08397">
        <ele>1555.56</ele>
        <time>2016-10-11T09:16:08Z</time>
      </trkpt>
      <trkpt lat="42.97284" lon="0.08395">
        <ele>1553.35</ele>
        <time>2016-10-11T09:16:26Z</time>
      </trkpt>
      <trkpt lat="42.97283" lon="0.08393">
        <ele>1551.33</ele>
        <time>2016-10-11T09:16:45Z</time>
      </trkpt>
      <trkpt lat="42.9728" lon="0.08392">
        <ele>1551.36</ele>
        <time>2016-10-11T09:17:05Z</time>
      </trkpt>
      <trkpt lat="42.97282" lon="0.08383">
        <ele>1550.44</ele>
        <time>2016-10-11T09:17:28Z</time>
      </trkpt>
      <trkpt lat="42.97282" lon="0.08378">
        <ele>1548.15</ele>
        <time>2016-10-11T09:17:35Z</time>
      </trkpt>
      <trkpt lat="42.97281" lon="0.08372">
        <ele>1548.18</ele>
        <time>2016-10-11T09:17:42Z</time>
      </trkpt>
      <trkpt lat="42.97275" lon="0.08369">
        <ele>1545.89</ele>
        <time>2016-10-11T09:17:53Z</time>
      </trkpt>
      <trkpt lat="42.97272" lon="0.08368">
        <ele>1545.89</ele>
        <time>2016-10-11T09:17:56Z</time>
      </trkpt>
      <trkpt lat="42.97265" lon="0.08364">
        <ele>1544.17</ele>
        <time>2016-10-11T09:18:07Z</time>
      </trkpt>
      <trkpt lat="42.9726" lon="0.08364">
        <ele>1542.16</ele>
        <time>2016-10-11T09:18:15Z</time>
      </trkpt>
      <trkpt lat="42.97258" lon="0.08365">
        <ele>1542.18</ele>
        <time>2016-10-11T09:18:17Z</time>
      </trkpt>
      <trkpt lat="42.97254" lon="0.08365">
        <ele>1540.57</ele>
        <time>2016-10-11T09:18:23Z</time>
      </trkpt>
      <trkpt lat="42.97251" lon="0.08359">
        <ele>1539.87</ele>
        <time>2016-10-11T09:18:42Z</time>
      </trkpt>
      <trkpt lat="42.97245" lon="0.08352">
        <ele>1537.98</ele>
        <time>2016-10-11T09:18:59Z</time>
      </trkpt>
      <trkpt lat="42.97242" lon="0.08345">
        <ele>1536.98</ele>
        <time>2016-10-11T09:19:08Z</time>
      </trkpt>
      <trkpt lat="42.97238" lon="0.08337">
        <ele>1535.09</ele>
        <time>2016-10-11T09:19:21Z</time>
      </trkpt>
      <trkpt lat="42.97236" lon="0.08334">
        <ele>1534.43</ele>
        <time>2016-10-11T09:19:40Z</time>
      </trkpt>
      <trkpt lat="42.97233" lon="0.08328">
        <ele>1534.45</ele>
        <time>2016-10-11T09:19:52Z</time>
      </trkpt>
      <trkpt lat="42.97231" lon="0.08326">
        <ele>1533.26</ele>
        <time>2016-10-11T09:19:54Z</time>
      </trkpt>
      <trkpt lat="42.97227" lon="0.08321">
        <ele>1533.41</ele>
        <time>2016-10-11T09:20:06Z</time>
      </trkpt>
      <trkpt lat="42.97228" lon="0.08322">
        <ele>1532.05</ele>
        <time>2016-10-11T09:20:10Z</time>
      </trkpt>
      <trkpt lat="42.97224" lon="0.08326">
        <ele>1530.84</ele>
        <time>2016-10-11T09:20:27Z</time>
      </trkpt>
      <trkpt lat="42.97222" lon="0.08332">
        <ele>1529.92</ele>
        <time>2016-10-11T09:20:43Z</time>
      </trkpt>
      <trkpt lat="42.97222" lon="0.08332">
        <ele>1529.93</ele>
        <time>2016-10-11T09:20:44Z</time>
      </trkpt>
      <trkpt lat="42.97217" lon="0.08342">
        <ele>1527.86</ele>
        <time>2016-10-11T09:20:57Z</time>
      </trkpt>
      <trkpt lat="42.97213" lon="0.08345">
        <ele>1524.81</ele>
        <time>2016-10-11T09:21:05Z</time>
      </trkpt>
      <trkpt lat="42.97208" lon="0.08345">
        <ele>1522.82</ele>
        <time>2016-10-11T09:21:20Z</time>
      </trkpt>
      <trkpt lat="42.97199" lon="0.08347">
        <ele>1520.65</ele>
        <time>2016-10-11T09:21:34Z</time>
      </trkpt>
      <trkpt lat="42.97196" lon="0.08348">
        <ele>1518.12</ele>
        <time>2016-10-11T09:21:39Z</time>
      </trkpt>
      <trkpt lat="42.97194" lon="0.08348">
        <ele>1517.31</ele>
        <time>2016-10-11T09:22:04Z</time>
      </trkpt>
      <trkpt lat="42.97194" lon="0.0835">
        <ele>1517.33</ele>
        <time>2016-10-11T09:22:16Z</time>
      </trkpt>
      <trkpt lat="42.9719" lon="0.08352">
        <ele>1516.01</ele>
        <time>2016-10-11T09:22:22Z</time>
      </trkpt>
      <trkpt lat="42.97184" lon="0.08358">
        <ele>1513.97</ele>
        <time>2016-10-11T09:22:36Z</time>
      </trkpt>
      <trkpt lat="42.9718" lon="0.08361">
        <ele>1511.42</ele>
        <time>2016-10-11T09:22:45Z</time>
      </trkpt>
      <trkpt lat="42.97174" lon="0.08368">
        <ele>1508.69</ele>
        <time>2016-10-11T09:23:01Z</time>
      </trkpt>
      <trkpt lat="42.97174" lon="0.08371">
        <ele>1507.37</ele>
        <time>2016-10-11T09:23:05Z</time>
      </trkpt>
      <trkpt lat="42.97171" lon="0.0838">
        <ele>1505.79</ele>
        <time>2016-10-11T09:23:19Z</time>
      </trkpt>
      <trkpt lat="42.97171" lon="0.08383">
        <ele>1505</ele>
        <time>2016-10-11T09:23:28Z</time>
      </trkpt>
      <trkpt lat="42.97169" lon="0.08386">
        <ele>1504.21</ele>
        <time>2016-10-11T09:23:31Z</time>
      </trkpt>
      <trkpt lat="42.97165" lon="0.08394">
        <ele>1503</ele>
        <time>2016-10-11T09:23:42Z</time>
      </trkpt>
      <trkpt lat="42.97163" lon="0.084">
        <ele>1500.95</ele>
        <time>2016-10-11T09:23:48Z</time>
      </trkpt>
      <trkpt lat="42.9716" lon="0.08401">
        <ele>1499.88</ele>
        <time>2016-10-11T09:23:53Z</time>
      </trkpt>
      <trkpt lat="42.97158" lon="0.08403">
        <ele>1499.9</ele>
        <time>2016-10-11T09:23:56Z</time>
      </trkpt>
      <trkpt lat="42.97156" lon="0.08406">
        <ele>1499.05</ele>
        <time>2016-10-11T09:23:59Z</time>
      </trkpt>
      <trkpt lat="42.97156" lon="0.08414">
        <ele>1498.02</ele>
        <time>2016-10-11T09:24:13Z</time>
      </trkpt>
      <trkpt lat="42.97155" lon="0.08412">
        <ele>1498.05</ele>
        <time>2016-10-11T09:24:32Z</time>
      </trkpt>
      <trkpt lat="42.97153" lon="0.08411">
        <ele>1498.05</ele>
        <time>2016-10-11T09:24:51Z</time>
      </trkpt>
      <trkpt lat="42.97153" lon="0.08411">
        <ele>1498.04</ele>
        <time>2016-10-11T09:25:23Z</time>
      </trkpt>
      <trkpt lat="42.97153" lon="0.08411">
        <ele>1497.15</ele>
        <time>2016-10-11T09:25:56Z</time>
      </trkpt>
      <trkpt lat="42.97153" lon="0.0841">
        <ele>1497.08</ele>
        <time>2016-10-11T09:26:30Z</time>
      </trkpt>
      <trkpt lat="42.97154" lon="0.0841">
        <ele>1497</ele>
        <time>2016-10-11T09:27:00Z</time>
      </trkpt>
      <trkpt lat="42.97154" lon="0.0841">
        <ele>1496.93</ele>
        <time>2016-10-11T09:27:26Z</time>
      </trkpt>
      <trkpt lat="42.97153" lon="0.08411">
        <ele>1496.84</ele>
        <time>2016-10-11T09:27:54Z</time>
      </trkpt>
      <trkpt lat="42.97154" lon="0.08411">
        <ele>1496.75</ele>
        <time>2016-10-11T09:28:28Z</time>
      </trkpt>
      <trkpt lat="42.97154" lon="0.08412">
        <ele>1496.67</ele>
        <time>2016-10-11T09:29:07Z</time>
      </trkpt>
      <trkpt lat="42.97153" lon="0.08412">
        <ele>1496.47</ele>
        <time>2016-10-11T09:29:50Z</time>
      </trkpt>
      <trkpt lat="42.97153" lon="0.08411">
        <ele>1498.98</ele>
        <time>2016-10-11T09:29:56Z</time>
      </trkpt>
      <trkpt lat="42.97153" lon="0.08412">
        <ele>1498.79</ele>
        <time>2016-10-11T09:30:28Z</time>
      </trkpt>
      <trkpt lat="42.97156" lon="0.08412">
        <ele>1498.73</ele>
        <time>2016-10-11T09:30:59Z</time>
      </trkpt>
      <trkpt lat="42.97155" lon="0.08409">
        <ele>1498.64</ele>
        <time>2016-10-11T09:31:26Z</time>
      </trkpt>
      <trkpt lat="42.97155" lon="0.08409">
        <ele>1498.51</ele>
        <time>2016-10-11T09:32:06Z</time>
      </trkpt>
      <trkpt lat="42.97156" lon="0.08409">
        <ele>1498.41</ele>
        <time>2016-10-11T09:32:37Z</time>
      </trkpt>
      <trkpt lat="42.97157" lon="0.08409">
        <ele>1498.3</ele>
        <time>2016-10-11T09:33:18Z</time>
      </trkpt>
      <trkpt lat="42.97155" lon="0.08409">
        <ele>1499.62</ele>
        <time>2016-10-11T09:33:52Z</time>
      </trkpt>
      <trkpt lat="42.97156" lon="0.0841">
        <ele>1497.32</ele>
        <time>2016-10-11T09:34:00Z</time>
      </trkpt>
      <trkpt lat="42.97158" lon="0.08407">
        <ele>1497.28</ele>
        <time>2016-10-11T09:34:13Z</time>
      </trkpt>
      <trkpt lat="42.97159" lon="0.08406">
        <ele>1497.21</ele>
        <time>2016-10-11T09:34:38Z</time>
      </trkpt>
      <trkpt lat="42.97157" lon="0.08405">
        <ele>1497.13</ele>
        <time>2016-10-11T09:35:05Z</time>
      </trkpt>
      <trkpt lat="42.97159" lon="0.08405">
        <ele>1497.03</ele>
        <time>2016-10-11T09:35:32Z</time>
      </trkpt>
      <trkpt lat="42.97159" lon="0.08404">
        <ele>1496.95</ele>
        <time>2016-10-11T09:35:57Z</time>
      </trkpt>
      <trkpt lat="42.9716" lon="0.08401">
        <ele>1496.88</ele>
        <time>2016-10-11T09:36:24Z</time>
      </trkpt>
      <trkpt lat="42.97163" lon="0.08406">
        <ele>1496.79</ele>
        <time>2016-10-11T09:36:53Z</time>
      </trkpt>
      <trkpt lat="42.97162" lon="0.08407">
        <ele>1496.81</ele>
        <time>2016-10-11T09:37:19Z</time>
      </trkpt>
      <trkpt lat="42.97161" lon="0.08407">
        <ele>1496.76</ele>
        <time>2016-10-11T09:37:44Z</time>
      </trkpt>
      <trkpt lat="42.9716" lon="0.08406">
        <ele>1496.71</ele>
        <time>2016-10-11T09:38:13Z</time>
      </trkpt>
      <trkpt lat="42.9716" lon="0.08405">
        <ele>1496.7</ele>
        <time>2016-10-11T09:38:45Z</time>
      </trkpt>
      <trkpt lat="42.97159" lon="0.08408">
        <ele>1496.7</ele>
        <time>2016-10-11T09:39:20Z</time>
      </trkpt>
      <trkpt lat="42.9716" lon="0.08403">
        <ele>1496.71</ele>
        <time>2016-10-11T09:39:50Z</time>
      </trkpt>
      <trkpt lat="42.97159" lon="0.08406">
        <ele>1496.72</ele>
        <time>2016-10-11T09:40:24Z</time>
      </trkpt>
      <trkpt lat="42.97162" lon="0.08404">
        <ele>1496.7</ele>
        <time>2016-10-11T09:40:54Z</time>
      </trkpt>
      <trkpt lat="42.97161" lon="0.08404">
        <ele>1499.11</ele>
        <time>2016-10-11T09:40:56Z</time>
      </trkpt>
      <trkpt lat="42.97162" lon="0.08404">
        <ele>1499.09</ele>
        <time>2016-10-11T09:41:19Z</time>
      </trkpt>
      <trkpt lat="42.97159" lon="0.08407">
        <ele>1499.12</ele>
        <time>2016-10-11T09:41:36Z</time>
      </trkpt>
      <trkpt lat="42.97157" lon="0.0841">
        <ele>1499.14</ele>
        <time>2016-10-11T09:41:52Z</time>
      </trkpt>
      <trkpt lat="42.97156" lon="0.08411">
        <ele>1499.1</ele>
        <time>2016-10-11T09:42:23Z</time>
      </trkpt>
      <trkpt lat="42.97157" lon="0.0841">
        <ele>1499.13</ele>
        <time>2016-10-11T09:42:47Z</time>
      </trkpt>
      <trkpt lat="42.97154" lon="0.0841">
        <ele>1496.53</ele>
        <time>2016-10-11T09:43:02Z</time>
      </trkpt>
      <trkpt lat="42.97154" lon="0.0841">
        <ele>1496.58</ele>
        <time>2016-10-11T09:43:03Z</time>
      </trkpt>
      <trkpt lat="42.97156" lon="0.0841">
        <ele>1496.55</ele>
        <time>2016-10-11T09:43:27Z</time>
      </trkpt>
      <trkpt lat="42.97154" lon="0.0841">
        <ele>1496.55</ele>
        <time>2016-10-11T09:43:46Z</time>
      </trkpt>
      <trkpt lat="42.97157" lon="0.08406">
        <ele>1496.59</ele>
        <time>2016-10-11T09:44:07Z</time>
      </trkpt>
      <trkpt lat="42.97161" lon="0.08405">
        <ele>1496.49</ele>
        <time>2016-10-11T09:44:35Z</time>
      </trkpt>
      <trkpt lat="42.97162" lon="0.08404">
        <ele>1496.55</ele>
        <time>2016-10-11T09:45:01Z</time>
      </trkpt>
      <trkpt lat="42.9716" lon="0.08402">
        <ele>1496.49</ele>
        <time>2016-10-11T09:45:26Z</time>
      </trkpt>
      <trkpt lat="42.9716" lon="0.08403">
        <ele>1496.49</ele>
        <time>2016-10-11T09:45:53Z</time>
      </trkpt>
      <trkpt lat="42.97161" lon="0.08401">
        <ele>1496.44</ele>
        <time>2016-10-11T09:46:23Z</time>
      </trkpt>
      <trkpt lat="42.97161" lon="0.08404">
        <ele>1496.41</ele>
        <time>2016-10-11T09:46:49Z</time>
      </trkpt>
      <trkpt lat="42.9716" lon="0.08407">
        <ele>1496.38</ele>
        <time>2016-10-11T09:47:17Z</time>
      </trkpt>
      <trkpt lat="42.9716" lon="0.08407">
        <ele>1496.35</ele>
        <time>2016-10-11T09:47:42Z</time>
      </trkpt>
      <trkpt lat="42.9716" lon="0.08405">
        <ele>1496.36</ele>
        <time>2016-10-11T09:47:50Z</time>
      </trkpt>
      <trkpt lat="42.97156" lon="0.0841">
        <ele>1496.34</ele>
        <time>2016-10-11T09:48:02Z</time>
      </trkpt>
      <trkpt lat="42.97158" lon="0.08407">
        <ele>1501.2</ele>
        <time>2016-10-11T09:48:12Z</time>
      </trkpt>
      <trkpt lat="42.97158" lon="0.08407">
        <ele>1498.87</ele>
        <time>2016-10-11T09:48:13Z</time>
      </trkpt>
      <trkpt lat="42.97158" lon="0.08406">
        <ele>1497.65</ele>
        <time>2016-10-11T09:48:15Z</time>
      </trkpt>
      <trkpt lat="42.97159" lon="0.08403">
        <ele>1497.65</ele>
        <time>2016-10-11T09:48:39Z</time>
      </trkpt>
      <trkpt lat="42.97157" lon="0.08409">
        <ele>1497.62</ele>
        <time>2016-10-11T09:49:04Z</time>
      </trkpt>
      <trkpt lat="42.97159" lon="0.08409">
        <ele>1497.58</ele>
        <time>2016-10-11T09:49:34Z</time>
      </trkpt>
      <trkpt lat="42.97155" lon="0.0841">
        <ele>1497.57</ele>
        <time>2016-10-11T09:49:48Z</time>
      </trkpt>
      <trkpt lat="42.97154" lon="0.08407">
        <ele>1497.57</ele>
        <time>2016-10-11T09:50:19Z</time>
      </trkpt>
      <trkpt lat="42.97154" lon="0.08406">
        <ele>1497.56</ele>
        <time>2016-10-11T09:50:51Z</time>
      </trkpt>
      <trkpt lat="42.97154" lon="0.08406">
        <ele>1496.31</ele>
        <time>2016-10-11T09:50:53Z</time>
      </trkpt>
      <trkpt lat="42.97153" lon="0.08405">
        <ele>1496.29</ele>
        <time>2016-10-11T09:51:27Z</time>
      </trkpt>
      <trkpt lat="42.97153" lon="0.08406">
        <ele>1496.27</ele>
        <time>2016-10-11T09:51:56Z</time>
      </trkpt>
      <trkpt lat="42.97156" lon="0.08411">
        <ele>1496.23</ele>
        <time>2016-10-11T09:52:25Z</time>
      </trkpt>
      <trkpt lat="42.97154" lon="0.0841">
        <ele>1496.2</ele>
        <time>2016-10-11T09:52:45Z</time>
      </trkpt>
      <trkpt lat="42.97153" lon="0.0841">
        <ele>1496.21</ele>
        <time>2016-10-11T09:52:46Z</time>
      </trkpt>
      <trkpt lat="42.97147" lon="0.08411">
        <ele>1496.19</ele>
        <time>2016-10-11T09:52:51Z</time>
      </trkpt>
      <trkpt lat="42.97139" lon="0.08417">
        <ele>1494.94</ele>
        <time>2016-10-11T09:52:59Z</time>
      </trkpt>
      <trkpt lat="42.97132" lon="0.08425">
        <ele>1493.42</ele>
        <time>2016-10-11T09:53:11Z</time>
      </trkpt>
      <trkpt lat="42.97126" lon="0.08427">
        <ele>1492.49</ele>
        <time>2016-10-11T09:53:30Z</time>
      </trkpt>
      <trkpt lat="42.9712" lon="0.08429">
        <ele>1490.52</ele>
        <time>2016-10-11T09:53:36Z</time>
      </trkpt>
      <trkpt lat="42.97118" lon="0.08429">
        <ele>1490.52</ele>
        <time>2016-10-11T09:53:38Z</time>
      </trkpt>
      <trkpt lat="42.97109" lon="0.08431">
        <ele>1488.69</ele>
        <time>2016-10-11T09:53:48Z</time>
      </trkpt>
      <trkpt lat="42.97104" lon="0.08435">
        <ele>1488.71</ele>
        <time>2016-10-11T09:53:54Z</time>
      </trkpt>
      <trkpt lat="42.97094" lon="0.08443">
        <ele>1486.87</ele>
        <time>2016-10-11T09:54:06Z</time>
      </trkpt>
      <trkpt lat="42.97087" lon="0.08446">
        <ele>1486.03</ele>
        <time>2016-10-11T09:54:12Z</time>
      </trkpt>
      <trkpt lat="42.97081" lon="0.08451">
        <ele>1485.18</ele>
        <time>2016-10-11T09:54:21Z</time>
      </trkpt>
      <trkpt lat="42.97079" lon="0.0845">
        <ele>1485.19</ele>
        <time>2016-10-11T09:54:23Z</time>
      </trkpt>
      <trkpt lat="42.97077" lon="0.08451">
        <ele>1485.2</ele>
        <time>2016-10-11T09:54:26Z</time>
      </trkpt>
      <trkpt lat="42.97073" lon="0.0845">
        <ele>1485.16</ele>
        <time>2016-10-11T09:54:29Z</time>
      </trkpt>
      <trkpt lat="42.97064" lon="0.08451">
        <ele>1484.38</ele>
        <time>2016-10-11T09:54:38Z</time>
      </trkpt>
      <trkpt lat="42.97058" lon="0.08455">
        <ele>1484.34</ele>
        <time>2016-10-11T09:54:44Z</time>
      </trkpt>
      <trkpt lat="42.97052" lon="0.08464">
        <ele>1484.28</ele>
        <time>2016-10-11T09:54:51Z</time>
      </trkpt>
      <trkpt lat="42.9705" lon="0.08464">
        <ele>1483.22</ele>
        <time>2016-10-11T09:54:53Z</time>
      </trkpt>
      <trkpt lat="42.97042" lon="0.08473">
        <ele>1482.35</ele>
        <time>2016-10-11T09:55:05Z</time>
      </trkpt>
      <trkpt lat="42.97041" lon="0.08473">
        <ele>1481.32</ele>
        <time>2016-10-11T09:55:07Z</time>
      </trkpt>
      <trkpt lat="42.97037" lon="0.08474">
        <ele>1480.38</ele>
        <time>2016-10-11T09:55:11Z</time>
      </trkpt>
      <trkpt lat="42.9703" lon="0.08485">
        <ele>1478.38</ele>
        <time>2016-10-11T09:55:23Z</time>
      </trkpt>
      <trkpt lat="42.97028" lon="0.08496">
        <ele>1476.73</ele>
        <time>2016-10-11T09:55:34Z</time>
      </trkpt>
      <trkpt lat="42.9703" lon="0.08509">
        <ele>1474.7</ele>
        <time>2016-10-11T09:55:48Z</time>
      </trkpt>
      <trkpt lat="42.97034" lon="0.08517">
        <ele>1473.45</ele>
        <time>2016-10-11T09:55:55Z</time>
      </trkpt>
      <trkpt lat="42.97039" lon="0.08529">
        <ele>1470.52</ele>
        <time>2016-10-11T09:56:11Z</time>
      </trkpt>
      <trkpt lat="42.97039" lon="0.08536">
        <ele>1469.22</ele>
        <time>2016-10-11T09:56:23Z</time>
      </trkpt>
      <trkpt lat="42.97039" lon="0.08538">
        <ele>1467.22</ele>
        <time>2016-10-11T09:56:25Z</time>
      </trkpt>
      <trkpt lat="42.97042" lon="0.08551">
        <ele>1464.64</ele>
        <time>2016-10-11T09:56:44Z</time>
      </trkpt>
      <trkpt lat="42.97046" lon="0.08562">
        <ele>1461.63</ele>
        <time>2016-10-11T09:56:53Z</time>
      </trkpt>
      <trkpt lat="42.97051" lon="0.08583">
        <ele>1458.12</ele>
        <time>2016-10-11T09:57:10Z</time>
      </trkpt>
      <trkpt lat="42.97049" lon="0.08587">
        <ele>1457.15</ele>
        <time>2016-10-11T09:57:14Z</time>
      </trkpt>
      <trkpt lat="42.97046" lon="0.08593">
        <ele>1455.61</ele>
        <time>2016-10-11T09:57:20Z</time>
      </trkpt>
      <trkpt lat="42.97048" lon="0.08597">
        <ele>1454.88</ele>
        <time>2016-10-11T09:57:34Z</time>
      </trkpt>
      <trkpt lat="42.9705" lon="0.08601">
        <ele>1453.93</ele>
        <time>2016-10-11T09:57:37Z</time>
      </trkpt>
      <trkpt lat="42.97055" lon="0.08619">
        <ele>1452.97</ele>
        <time>2016-10-11T09:57:51Z</time>
      </trkpt>
      <trkpt lat="42.97047" lon="0.08627">
        <ele>1452.01</ele>
        <time>2016-10-11T09:58:23Z</time>
      </trkpt>
      <trkpt lat="42.97052" lon="0.08631">
        <ele>1452.04</ele>
        <time>2016-10-11T09:58:48Z</time>
      </trkpt>
      <trkpt lat="42.97048" lon="0.08639">
        <ele>1452.04</ele>
        <time>2016-10-11T09:58:55Z</time>
      </trkpt>
      <trkpt lat="42.97047" lon="0.08644">
        <ele>1450.16</ele>
        <time>2016-10-11T09:59:06Z</time>
      </trkpt>
      <trkpt lat="42.97049" lon="0.08647">
        <ele>1447.44</ele>
        <time>2016-10-11T09:59:14Z</time>
      </trkpt>
      <trkpt lat="42.97053" lon="0.08655">
        <ele>1445.09</ele>
        <time>2016-10-11T09:59:23Z</time>
      </trkpt>
      <trkpt lat="42.97057" lon="0.08661">
        <ele>1441.82</ele>
        <time>2016-10-11T09:59:34Z</time>
      </trkpt>
      <trkpt lat="42.97057" lon="0.08661">
        <ele>1441.79</ele>
        <time>2016-10-11T09:59:35Z</time>
      </trkpt>
      <trkpt lat="42.97055" lon="0.08674">
        <ele>1438.64</ele>
        <time>2016-10-11T09:59:51Z</time>
      </trkpt>
      <trkpt lat="42.97047" lon="0.08683">
        <ele>1435.27</ele>
        <time>2016-10-11T10:00:03Z</time>
      </trkpt>
      <trkpt lat="42.97038" lon="0.08694">
        <ele>1432.28</ele>
        <time>2016-10-11T10:00:20Z</time>
      </trkpt>
      <trkpt lat="42.97035" lon="0.08711">
        <ele>1429.41</ele>
        <time>2016-10-11T10:00:38Z</time>
      </trkpt>
      <trkpt lat="42.97034" lon="0.08715">
        <ele>1427.42</ele>
        <time>2016-10-11T10:00:46Z</time>
      </trkpt>
      <trkpt lat="42.97026" lon="0.08722">
        <ele>1424.15</ele>
        <time>2016-10-11T10:01:01Z</time>
      </trkpt>
      <trkpt lat="42.97026" lon="0.08723">
        <ele>1424.15</ele>
        <time>2016-10-11T10:01:02Z</time>
      </trkpt>
      <trkpt lat="42.97023" lon="0.08736">
        <ele>1420.42</ele>
        <time>2016-10-11T10:01:17Z</time>
      </trkpt>
      <trkpt lat="42.97023" lon="0.08742">
        <ele>1417.81</ele>
        <time>2016-10-11T10:01:24Z</time>
      </trkpt>
      <trkpt lat="42.97026" lon="0.08751">
        <ele>1416.29</ele>
        <time>2016-10-11T10:01:43Z</time>
      </trkpt>
      <trkpt lat="42.97026" lon="0.08766">
        <ele>1412.78</ele>
        <time>2016-10-11T10:02:00Z</time>
      </trkpt>
      <trkpt lat="42.97024" lon="0.0878">
        <ele>1409.09</ele>
        <time>2016-10-11T10:02:16Z</time>
      </trkpt>
      <trkpt lat="42.97025" lon="0.08794">
        <ele>1405.92</ele>
        <time>2016-10-11T10:02:33Z</time>
      </trkpt>
      <trkpt lat="42.97024" lon="0.08807">
        <ele>1404.75</ele>
        <time>2016-10-11T10:02:53Z</time>
      </trkpt>
      <trkpt lat="42.97025" lon="0.08811">
        <ele>1403.46</ele>
        <time>2016-10-11T10:03:03Z</time>
      </trkpt>
      <trkpt lat="42.97029" lon="0.08827">
        <ele>1399.67</ele>
        <time>2016-10-11T10:03:20Z</time>
      </trkpt>
      <trkpt lat="42.97029" lon="0.0883">
        <ele>1398.83</ele>
        <time>2016-10-11T10:03:22Z</time>
      </trkpt>
      <trkpt lat="42.9703" lon="0.08843">
        <ele>1395.65</ele>
        <time>2016-10-11T10:03:35Z</time>
      </trkpt>
      <trkpt lat="42.97032" lon="0.0885">
        <ele>1394.43</ele>
        <time>2016-10-11T10:03:42Z</time>
      </trkpt>
      <trkpt lat="42.9703" lon="0.08861">
        <ele>1390.72</ele>
        <time>2016-10-11T10:03:56Z</time>
      </trkpt>
      <trkpt lat="42.97027" lon="0.08869">
        <ele>1391.22</ele>
        <time>2016-10-11T10:04:15Z</time>
      </trkpt>
      <trkpt lat="42.97027" lon="0.08871">
        <ele>1391.34</ele>
        <time>2016-10-11T10:04:43Z</time>
      </trkpt>
      <trkpt lat="42.97027" lon="0.08874">
        <ele>1389.99</ele>
        <time>2016-10-11T10:04:46Z</time>
      </trkpt>
      <trkpt lat="42.97029" lon="0.08882">
        <ele>1386.84</ele>
        <time>2016-10-11T10:04:53Z</time>
      </trkpt>
      <trkpt lat="42.97029" lon="0.08883">
        <ele>1386.91</ele>
        <time>2016-10-11T10:04:54Z</time>
      </trkpt>
      <trkpt lat="42.97028" lon="0.08896">
        <ele>1383.89</ele>
        <time>2016-10-11T10:05:06Z</time>
      </trkpt>
      <trkpt lat="42.97028" lon="0.08899">
        <ele>1382.3</ele>
        <time>2016-10-11T10:05:10Z</time>
      </trkpt>
      <trkpt lat="42.97023" lon="0.08903">
        <ele>1378.78</ele>
        <time>2016-10-11T10:05:23Z</time>
      </trkpt>
      <trkpt lat="42.97022" lon="0.08907">
        <ele>1377.14</ele>
        <time>2016-10-11T10:05:29Z</time>
      </trkpt>
      <trkpt lat="42.97019" lon="0.08913">
        <ele>1376.98</ele>
        <time>2016-10-11T10:05:34Z</time>
      </trkpt>
      <trkpt lat="42.97014" lon="0.08926">
        <ele>1373.25</ele>
        <time>2016-10-11T10:05:45Z</time>
      </trkpt>
      <trkpt lat="42.97014" lon="0.08927">
        <ele>1372.98</ele>
        <time>2016-10-11T10:05:46Z</time>
      </trkpt>
      <trkpt lat="42.9701" lon="0.08936">
        <ele>1369.44</ele>
        <time>2016-10-11T10:05:57Z</time>
      </trkpt>
      <trkpt lat="42.97003" lon="0.08933">
        <ele>1367.13</ele>
        <time>2016-10-11T10:06:08Z</time>
      </trkpt>
      <trkpt lat="42.96996" lon="0.08931">
        <ele>1364.85</ele>
        <time>2016-10-11T10:06:24Z</time>
      </trkpt>
      <trkpt lat="42.96987" lon="0.08932">
        <ele>1361.15</ele>
        <time>2016-10-11T10:06:41Z</time>
      </trkpt>
      <trkpt lat="42.96984" lon="0.08946">
        <ele>1357.79</ele>
        <time>2016-10-11T10:06:58Z</time>
      </trkpt>
      <trkpt lat="42.96988" lon="0.08954">
        <ele>1355.57</ele>
        <time>2016-10-11T10:07:06Z</time>
      </trkpt>
      <trkpt lat="42.96992" lon="0.08975">
        <ele>1352.28</ele>
        <time>2016-10-11T10:07:24Z</time>
      </trkpt>
      <trkpt lat="42.96992" lon="0.08976">
        <ele>1352.27</ele>
        <time>2016-10-11T10:07:25Z</time>
      </trkpt>
      <trkpt lat="42.96993" lon="0.0899">
        <ele>1349.96</ele>
        <time>2016-10-11T10:07:36Z</time>
      </trkpt>
      <trkpt lat="42.96995" lon="0.08997">
        <ele>1348.06</ele>
        <time>2016-10-11T10:07:40Z</time>
      </trkpt>
      <trkpt lat="42.96997" lon="0.09019">
        <ele>1345.6</ele>
        <time>2016-10-11T10:07:57Z</time>
      </trkpt>
      <trkpt lat="42.96993" lon="0.09018">
        <ele>1344.31</ele>
        <time>2016-10-11T10:08:17Z</time>
      </trkpt>
      <trkpt lat="42.96993" lon="0.09017">
        <ele>1346.5</ele>
        <time>2016-10-11T10:08:21Z</time>
      </trkpt>
      <trkpt lat="42.96995" lon="0.09019">
        <ele>1347.49</ele>
        <time>2016-10-11T10:08:32Z</time>
      </trkpt>
      <trkpt lat="42.96995" lon="0.0902">
        <ele>1345.14</ele>
        <time>2016-10-11T10:08:45Z</time>
      </trkpt>
      <trkpt lat="42.96984" lon="0.09024">
        <ele>1345.46</ele>
        <time>2016-10-11T10:09:15Z</time>
      </trkpt>
      <trkpt lat="42.96987" lon="0.09022">
        <ele>1345.59</ele>
        <time>2016-10-11T10:09:41Z</time>
      </trkpt>
      <trkpt lat="42.96991" lon="0.09023">
        <ele>1348.79</ele>
        <time>2016-10-11T10:10:07Z</time>
      </trkpt>
      <trkpt lat="42.96991" lon="0.09024">
        <ele>1348.77</ele>
        <time>2016-10-11T10:10:08Z</time>
      </trkpt>
      <trkpt lat="42.96991" lon="0.09025">
        <ele>1345.99</ele>
        <time>2016-10-11T10:10:11Z</time>
      </trkpt>
      <trkpt lat="42.96991" lon="0.09023">
        <ele>1346.15</ele>
        <time>2016-10-11T10:10:30Z</time>
      </trkpt>
      <trkpt lat="42.96997" lon="0.09031">
        <ele>1346.09</ele>
        <time>2016-10-11T10:10:45Z</time>
      </trkpt>
      <trkpt lat="42.97" lon="0.09042">
        <ele>1346.09</ele>
        <time>2016-10-11T10:10:49Z</time>
      </trkpt>
      <trkpt lat="42.97002" lon="0.09056">
        <ele>1345.14</ele>
        <time>2016-10-11T10:10:54Z</time>
      </trkpt>
      <trkpt lat="42.97002" lon="0.0906">
        <ele>1345.18</ele>
        <time>2016-10-11T10:10:56Z</time>
      </trkpt>
      <trkpt lat="42.97003" lon="0.09073">
        <ele>1342.55</ele>
        <time>2016-10-11T10:11:05Z</time>
      </trkpt>
      <trkpt lat="42.97005" lon="0.09082">
        <ele>1341.03</ele>
        <time>2016-10-11T10:11:10Z</time>
      </trkpt>
      <trkpt lat="42.97006" lon="0.09093">
        <ele>1341.22</ele>
        <time>2016-10-11T10:11:15Z</time>
      </trkpt>
      <trkpt lat="42.9701" lon="0.09102">
        <ele>1339.53</ele>
        <time>2016-10-11T10:11:21Z</time>
      </trkpt>
      <trkpt lat="42.97012" lon="0.09108">
        <ele>1339.52</ele>
        <time>2016-10-11T10:11:25Z</time>
      </trkpt>
      <trkpt lat="42.97013" lon="0.09114">
        <ele>1338.2</ele>
        <time>2016-10-11T10:11:29Z</time>
      </trkpt>
      <trkpt lat="42.97022" lon="0.09138">
        <ele>1336.42</ele>
        <time>2016-10-11T10:11:44Z</time>
      </trkpt>
      <trkpt lat="42.97023" lon="0.09141">
        <ele>1335.7</ele>
        <time>2016-10-11T10:11:46Z</time>
      </trkpt>
      <trkpt lat="42.9703" lon="0.09155">
        <ele>1333.77</ele>
        <time>2016-10-11T10:11:59Z</time>
      </trkpt>
      <trkpt lat="42.97042" lon="0.09171">
        <ele>1331.69</ele>
        <time>2016-10-11T10:12:17Z</time>
      </trkpt>
      <trkpt lat="42.97043" lon="0.09173">
        <ele>1331.76</ele>
        <time>2016-10-11T10:12:18Z</time>
      </trkpt>
      <trkpt lat="42.97052" lon="0.09195">
        <ele>1328.87</ele>
        <time>2016-10-11T10:12:37Z</time>
      </trkpt>
      <trkpt lat="42.97053" lon="0.09196">
        <ele>1327.63</ele>
        <time>2016-10-11T10:12:39Z</time>
      </trkpt>
      <trkpt lat="42.9706" lon="0.09203">
        <ele>1324.11</ele>
        <time>2016-10-11T10:12:48Z</time>
      </trkpt>
      <trkpt lat="42.9706" lon="0.09205">
        <ele>1324.13</ele>
        <time>2016-10-11T10:12:49Z</time>
      </trkpt>
      <trkpt lat="42.97067" lon="0.09226">
        <ele>1322.44</ele>
        <time>2016-10-11T10:13:05Z</time>
      </trkpt>
      <trkpt lat="42.97068" lon="0.09239">
        <ele>1318.75</ele>
        <time>2016-10-11T10:13:15Z</time>
      </trkpt>
      <trkpt lat="42.97068" lon="0.0924">
        <ele>1318.86</ele>
        <time>2016-10-11T10:13:16Z</time>
      </trkpt>
      <trkpt lat="42.97069" lon="0.09256">
        <ele>1316.42</ele>
        <time>2016-10-11T10:13:27Z</time>
      </trkpt>
      <trkpt lat="42.97071" lon="0.09272">
        <ele>1312.61</ele>
        <time>2016-10-11T10:13:40Z</time>
      </trkpt>
      <trkpt lat="42.97072" lon="0.09273">
        <ele>1312.64</ele>
        <time>2016-10-11T10:13:41Z</time>
      </trkpt>
      <trkpt lat="42.97071" lon="0.09276">
        <ele>1311.43</ele>
        <time>2016-10-11T10:13:55Z</time>
      </trkpt>
      <trkpt lat="42.97074" lon="0.09287">
        <ele>1309.92</ele>
        <time>2016-10-11T10:14:01Z</time>
      </trkpt>
      <trkpt lat="42.97077" lon="0.09296">
        <ele>1306.82</ele>
        <time>2016-10-11T10:14:08Z</time>
      </trkpt>
      <trkpt lat="42.97078" lon="0.09297">
        <ele>1306.78</ele>
        <time>2016-10-11T10:14:09Z</time>
      </trkpt>
      <trkpt lat="42.97078" lon="0.0932">
        <ele>1306.04</ele>
        <time>2016-10-11T10:14:30Z</time>
      </trkpt>
      <trkpt lat="42.97078" lon="0.09322">
        <ele>1304.69</ele>
        <time>2016-10-11T10:14:32Z</time>
      </trkpt>
      <trkpt lat="42.97072" lon="0.09326">
        <ele>1300.82</ele>
        <time>2016-10-11T10:14:44Z</time>
      </trkpt>
      <trkpt lat="42.97074" lon="0.09333">
        <ele>1300.07</ele>
        <time>2016-10-11T10:15:05Z</time>
      </trkpt>
      <trkpt lat="42.97075" lon="0.09339">
        <ele>1296.76</ele>
        <time>2016-10-11T10:15:13Z</time>
      </trkpt>
      <trkpt lat="42.97076" lon="0.09342">
        <ele>1295.45</ele>
        <time>2016-10-11T10:15:18Z</time>
      </trkpt>
      <trkpt lat="42.97076" lon="0.09341">
        <ele>1294.35</ele>
        <time>2016-10-11T10:15:39Z</time>
      </trkpt>
      <trkpt lat="42.97069" lon="0.0934">
        <ele>1292.81</ele>
        <time>2016-10-11T10:15:46Z</time>
      </trkpt>
      <trkpt lat="42.97066" lon="0.09338">
        <ele>1291.41</ele>
        <time>2016-10-11T10:15:51Z</time>
      </trkpt>
      <trkpt lat="42.97064" lon="0.09336">
        <ele>1290.02</ele>
        <time>2016-10-11T10:15:54Z</time>
      </trkpt>
      <trkpt lat="42.97054" lon="0.0933">
        <ele>1286.07</ele>
        <time>2016-10-11T10:16:07Z</time>
      </trkpt>
      <trkpt lat="42.97044" lon="0.09326">
        <ele>1283.06</ele>
        <time>2016-10-11T10:16:19Z</time>
      </trkpt>
      <trkpt lat="42.97041" lon="0.0933">
        <ele>1281.5</ele>
        <time>2016-10-11T10:16:40Z</time>
      </trkpt>
      <trkpt lat="42.9704" lon="0.09337">
        <ele>1278.99</ele>
        <time>2016-10-11T10:16:55Z</time>
      </trkpt>
      <trkpt lat="42.97042" lon="0.09346">
        <ele>1276.46</ele>
        <time>2016-10-11T10:17:03Z</time>
      </trkpt>
      <trkpt lat="42.97043" lon="0.09349">
        <ele>1276.45</ele>
        <time>2016-10-11T10:17:05Z</time>
      </trkpt>
      <trkpt lat="42.97048" lon="0.09364">
        <ele>1273.34</ele>
        <time>2016-10-11T10:17:17Z</time>
      </trkpt>
      <trkpt lat="42.97048" lon="0.09372">
        <ele>1269.8</ele>
        <time>2016-10-11T10:17:25Z</time>
      </trkpt>
      <trkpt lat="42.97049" lon="0.09373">
        <ele>1269.8</ele>
        <time>2016-10-11T10:17:26Z</time>
      </trkpt>
      <trkpt lat="42.97058" lon="0.09383">
        <ele>1266.48</ele>
        <time>2016-10-11T10:17:45Z</time>
      </trkpt>
      <trkpt lat="42.97065" lon="0.09389">
        <ele>1262.99</ele>
        <time>2016-10-11T10:18:03Z</time>
      </trkpt>
      <trkpt lat="42.97065" lon="0.09392">
        <ele>1262.31</ele>
        <time>2016-10-11T10:18:21Z</time>
      </trkpt>
      <trkpt lat="42.97065" lon="0.0939">
        <ele>1262.46</ele>
        <time>2016-10-11T10:18:47Z</time>
      </trkpt>
      <trkpt lat="42.97069" lon="0.09412">
        <ele>1259.83</ele>
        <time>2016-10-11T10:19:05Z</time>
      </trkpt>
      <trkpt lat="42.97076" lon="0.09431">
        <ele>1256.16</ele>
        <time>2016-10-11T10:19:21Z</time>
      </trkpt>
      <trkpt lat="42.97079" lon="0.09443">
        <ele>1253.41</ele>
        <time>2016-10-11T10:19:29Z</time>
      </trkpt>
      <trkpt lat="42.97082" lon="0.09459">
        <ele>1250.02</ele>
        <time>2016-10-11T10:19:44Z</time>
      </trkpt>
      <trkpt lat="42.97082" lon="0.0946">
        <ele>1249.96</ele>
        <time>2016-10-11T10:19:45Z</time>
      </trkpt>
      <trkpt lat="42.97081" lon="0.09474">
        <ele>1246.55</ele>
        <time>2016-10-11T10:19:56Z</time>
      </trkpt>
      <trkpt lat="42.97085" lon="0.09487">
        <ele>1243.49</ele>
        <time>2016-10-11T10:20:14Z</time>
      </trkpt>
      <trkpt lat="42.97084" lon="0.09486">
        <ele>1243.69</ele>
        <time>2016-10-11T10:20:27Z</time>
      </trkpt>
      <trkpt lat="42.97089" lon="0.09506">
        <ele>1241.06</ele>
        <time>2016-10-11T10:20:41Z</time>
      </trkpt>
      <trkpt lat="42.97089" lon="0.09514">
        <ele>1239.67</ele>
        <time>2016-10-11T10:20:48Z</time>
      </trkpt>
      <trkpt lat="42.97093" lon="0.09523">
        <ele>1235.86</ele>
        <time>2016-10-11T10:21:10Z</time>
      </trkpt>
      <trkpt lat="42.97093" lon="0.09528">
        <ele>1234.56</ele>
        <time>2016-10-11T10:21:15Z</time>
      </trkpt>
      <trkpt lat="42.97092" lon="0.09539">
        <ele>1231.99</ele>
        <time>2016-10-11T10:21:33Z</time>
      </trkpt>
      <trkpt lat="42.97097" lon="0.09554">
        <ele>1228.32</ele>
        <time>2016-10-11T10:21:46Z</time>
      </trkpt>
      <trkpt lat="42.97099" lon="0.09559">
        <ele>1226.94</ele>
        <time>2016-10-11T10:21:53Z</time>
      </trkpt>
      <trkpt lat="42.97105" lon="0.09567">
        <ele>1223.9</ele>
        <time>2016-10-11T10:22:06Z</time>
      </trkpt>
      <trkpt lat="42.97108" lon="0.09578">
        <ele>1220.52</ele>
        <time>2016-10-11T10:22:20Z</time>
      </trkpt>
      <trkpt lat="42.97105" lon="0.0958">
        <ele>1219.68</ele>
        <time>2016-10-11T10:22:42Z</time>
      </trkpt>
      <trkpt lat="42.97108" lon="0.09583">
        <ele>1218.63</ele>
        <time>2016-10-11T10:23:06Z</time>
      </trkpt>
      <trkpt lat="42.97109" lon="0.09588">
        <ele>1217.3</ele>
        <time>2016-10-11T10:23:10Z</time>
      </trkpt>
      <trkpt lat="42.97111" lon="0.09597">
        <ele>1216.47</ele>
        <time>2016-10-11T10:23:28Z</time>
      </trkpt>
      <trkpt lat="42.97104" lon="0.09593">
        <ele>1219.08</ele>
        <time>2016-10-11T10:23:42Z</time>
      </trkpt>
      <trkpt lat="42.97106" lon="0.09591">
        <ele>1220.07</ele>
        <time>2016-10-11T10:23:57Z</time>
      </trkpt>
      <trkpt lat="42.97109" lon="0.09592">
        <ele>1220.04</ele>
        <time>2016-10-11T10:24:02Z</time>
      </trkpt>
      <trkpt lat="42.97113" lon="0.09595">
        <ele>1216.94</ele>
        <time>2016-10-11T10:24:06Z</time>
      </trkpt>
      <trkpt lat="42.97114" lon="0.09597">
        <ele>1216.93</ele>
        <time>2016-10-11T10:24:07Z</time>
      </trkpt>
      <trkpt lat="42.97115" lon="0.09598">
        <ele>1216.92</ele>
        <time>2016-10-11T10:24:08Z</time>
      </trkpt>
      <trkpt lat="42.97117" lon="0.09599">
        <ele>1216.91</ele>
        <time>2016-10-11T10:24:10Z</time>
      </trkpt>
      <trkpt lat="42.97129" lon="0.09607">
        <ele>1214.44</ele>
        <time>2016-10-11T10:24:25Z</time>
      </trkpt>
      <trkpt lat="42.9713" lon="0.09619">
        <ele>1209.41</ele>
        <time>2016-10-11T10:24:40Z</time>
      </trkpt>
      <trkpt lat="42.9713" lon="0.0962">
        <ele>1209.43</ele>
        <time>2016-10-11T10:24:41Z</time>
      </trkpt>
      <trkpt lat="42.97135" lon="0.0963">
        <ele>1206.43</ele>
        <time>2016-10-11T10:24:51Z</time>
      </trkpt>
      <trkpt lat="42.97139" lon="0.09644">
        <ele>1202.77</ele>
        <time>2016-10-11T10:25:07Z</time>
      </trkpt>
      <trkpt lat="42.9713" lon="0.09651">
        <ele>1199.11</ele>
        <time>2016-10-11T10:25:19Z</time>
      </trkpt>
      <trkpt lat="42.9713" lon="0.09651">
        <ele>1199.11</ele>
        <time>2016-10-11T10:25:20Z</time>
      </trkpt>
      <trkpt lat="42.97129" lon="0.09654">
        <ele>1197.7</ele>
        <time>2016-10-11T10:25:27Z</time>
      </trkpt>
      <trkpt lat="42.97127" lon="0.09657">
        <ele>1196.25</ele>
        <time>2016-10-11T10:25:31Z</time>
      </trkpt>
      <trkpt lat="42.97126" lon="0.09657">
        <ele>1196.29</ele>
        <time>2016-10-11T10:25:33Z</time>
      </trkpt>
      <trkpt lat="42.97123" lon="0.09659">
        <ele>1195.01</ele>
        <time>2016-10-11T10:25:36Z</time>
      </trkpt>
      <trkpt lat="42.97122" lon="0.09665">
        <ele>1191.96</ele>
        <time>2016-10-11T10:25:45Z</time>
      </trkpt>
      <trkpt lat="42.97123" lon="0.09669">
        <ele>1190.21</ele>
        <time>2016-10-11T10:26:03Z</time>
      </trkpt>
      <trkpt lat="42.97117" lon="0.09677">
        <ele>1187.66</ele>
        <time>2016-10-11T10:26:18Z</time>
      </trkpt>
      <trkpt lat="42.97117" lon="0.09678">
        <ele>1186.27</ele>
        <time>2016-10-11T10:26:20Z</time>
      </trkpt>
      <trkpt lat="42.97118" lon="0.09679">
        <ele>1186.23</ele>
        <time>2016-10-11T10:26:23Z</time>
      </trkpt>
      <trkpt lat="42.97116" lon="0.09686">
        <ele>1185.34</ele>
        <time>2016-10-11T10:26:36Z</time>
      </trkpt>
      <trkpt lat="42.97115" lon="0.09687">
        <ele>1185.27</ele>
        <time>2016-10-11T10:27:05Z</time>
      </trkpt>
      <trkpt lat="42.97112" lon="0.09686">
        <ele>1185.16</ele>
        <time>2016-10-11T10:27:30Z</time>
      </trkpt>
      <trkpt lat="42.97105" lon="0.09682">
        <ele>1184.07</ele>
        <time>2016-10-11T10:28:00Z</time>
      </trkpt>
      <trkpt lat="42.97103" lon="0.09685">
        <ele>1180.36</ele>
        <time>2016-10-11T10:28:18Z</time>
      </trkpt>
      <trkpt lat="42.97102" lon="0.09693">
        <ele>1177.5</ele>
        <time>2016-10-11T10:28:33Z</time>
      </trkpt>
      <trkpt lat="42.97096" lon="0.09694">
        <ele>1173.74</ele>
        <time>2016-10-11T10:28:43Z</time>
      </trkpt>
      <trkpt lat="42.97083" lon="0.09695">
        <ele>1170.45</ele>
        <time>2016-10-11T10:28:58Z</time>
      </trkpt>
      <trkpt lat="42.97073" lon="0.09697">
        <ele>1166.73</ele>
        <time>2016-10-11T10:29:11Z</time>
      </trkpt>
      <trkpt lat="42.97069" lon="0.09701">
        <ele>1164.77</ele>
        <time>2016-10-11T10:29:20Z</time>
      </trkpt>
      <trkpt lat="42.97066" lon="0.09701">
        <ele>1163.9</ele>
        <time>2016-10-11T10:29:45Z</time>
      </trkpt>
      <trkpt lat="42.97062" lon="0.09702">
        <ele>1162.56</ele>
        <time>2016-10-11T10:29:56Z</time>
      </trkpt>
      <trkpt lat="42.97057" lon="0.09701">
        <ele>1159.4</ele>
        <time>2016-10-11T10:30:06Z</time>
      </trkpt>
      <trkpt lat="42.97057" lon="0.09702">
        <ele>1159.37</ele>
        <time>2016-10-11T10:30:07Z</time>
      </trkpt>
      <trkpt lat="42.97056" lon="0.09708">
        <ele>1157.02</ele>
        <time>2016-10-11T10:30:26Z</time>
      </trkpt>
      <trkpt lat="42.97066" lon="0.09712">
        <ele>1153.98</ele>
        <time>2016-10-11T10:30:38Z</time>
      </trkpt>
      <trkpt lat="42.97067" lon="0.09713">
        <ele>1153.96</ele>
        <time>2016-10-11T10:30:39Z</time>
      </trkpt>
      <trkpt lat="42.97071" lon="0.09714">
        <ele>1152.56</ele>
        <time>2016-10-11T10:30:46Z</time>
      </trkpt>
      <trkpt lat="42.97075" lon="0.09724">
        <ele>1151.75</ele>
        <time>2016-10-11T10:30:56Z</time>
      </trkpt>
      <trkpt lat="42.97076" lon="0.09734">
        <ele>1149.64</ele>
        <time>2016-10-11T10:31:03Z</time>
      </trkpt>
      <trkpt lat="42.97067" lon="0.09737">
        <ele>1145.18</ele>
        <time>2016-10-11T10:31:15Z</time>
      </trkpt>
      <trkpt lat="42.97066" lon="0.09738">
        <ele>1145.23</ele>
        <time>2016-10-11T10:31:16Z</time>
      </trkpt>
      <trkpt lat="42.9706" lon="0.09741">
        <ele>1145.23</ele>
        <time>2016-10-11T10:31:22Z</time>
      </trkpt>
      <trkpt lat="42.97049" lon="0.09742">
        <ele>1141.31</ele>
        <time>2016-10-11T10:31:36Z</time>
      </trkpt>
      <trkpt lat="42.97048" lon="0.09741">
        <ele>1141.29</ele>
        <time>2016-10-11T10:31:37Z</time>
      </trkpt>
      <trkpt lat="42.97042" lon="0.09738">
        <ele>1137.41</ele>
        <time>2016-10-11T10:31:46Z</time>
      </trkpt>
      <trkpt lat="42.97042" lon="0.09737">
        <ele>1137.41</ele>
        <time>2016-10-11T10:31:47Z</time>
      </trkpt>
      <trkpt lat="42.97044" lon="0.09739">
        <ele>1137.37</ele>
        <time>2016-10-11T10:32:17Z</time>
      </trkpt>
      <trkpt lat="42.97038" lon="0.09738">
        <ele>1137.25</ele>
        <time>2016-10-11T10:32:42Z</time>
      </trkpt>
      <trkpt lat="42.97022" lon="0.09732">
        <ele>1132.51</ele>
        <time>2016-10-11T10:32:57Z</time>
      </trkpt>
      <trkpt lat="42.97021" lon="0.09731">
        <ele>1132.51</ele>
        <time>2016-10-11T10:32:58Z</time>
      </trkpt>
      <trkpt lat="42.97011" lon="0.0973">
        <ele>1131.38</ele>
        <time>2016-10-11T10:33:14Z</time>
      </trkpt>
      <trkpt lat="42.97007" lon="0.09735">
        <ele>1127.73</ele>
        <time>2016-10-11T10:33:28Z</time>
      </trkpt>
      <trkpt lat="42.97016" lon="0.09745">
        <ele>1121.6</ele>
        <time>2016-10-11T10:33:44Z</time>
      </trkpt>
      <trkpt lat="42.97016" lon="0.09745">
        <ele>1124.99</ele>
        <time>2016-10-11T10:33:45Z</time>
      </trkpt>
      <trkpt lat="42.97015" lon="0.09748">
        <ele>1123.64</ele>
        <time>2016-10-11T10:34:00Z</time>
      </trkpt>
      <trkpt lat="42.97011" lon="0.09742">
        <ele>1125.85</ele>
        <time>2016-10-11T10:34:12Z</time>
      </trkpt>
      <trkpt lat="42.97009" lon="0.09739">
        <ele>1123.9</ele>
        <time>2016-10-11T10:34:32Z</time>
      </trkpt>
      <trkpt lat="42.97013" lon="0.09742">
        <ele>1123.82</ele>
        <time>2016-10-11T10:34:44Z</time>
      </trkpt>
      <trkpt lat="42.97021" lon="0.09757">
        <ele>1120.15</ele>
        <time>2016-10-11T10:34:56Z</time>
      </trkpt>
      <trkpt lat="42.97029" lon="0.09773">
        <ele>1116.81</ele>
        <time>2016-10-11T10:35:09Z</time>
      </trkpt>
      <trkpt lat="42.97023" lon="0.09774">
        <ele>1115.61</ele>
        <time>2016-10-11T10:35:23Z</time>
      </trkpt>
      <trkpt lat="42.97016" lon="0.09764">
        <ele>1115.49</ele>
        <time>2016-10-11T10:35:41Z</time>
      </trkpt>
      <trkpt lat="42.97003" lon="0.09755">
        <ele>1115.34</ele>
        <time>2016-10-11T10:35:58Z</time>
      </trkpt>
      <trkpt lat="42.96994" lon="0.09742">
        <ele>1115.22</ele>
        <time>2016-10-11T10:36:11Z</time>
      </trkpt>
      <trkpt lat="42.96988" lon="0.09736">
        <ele>1117.55</ele>
        <time>2016-10-11T10:36:18Z</time>
      </trkpt>
      <trkpt lat="42.96973" lon="0.09724">
        <ele>1119.63</ele>
        <time>2016-10-11T10:36:36Z</time>
      </trkpt>
      <trkpt lat="42.96971" lon="0.09721">
        <ele>1117.16</ele>
        <time>2016-10-11T10:36:40Z</time>
      </trkpt>
      <trkpt lat="42.96964" lon="0.09716">
        <ele>1119.64</ele>
        <time>2016-10-11T10:36:52Z</time>
      </trkpt>
      <trkpt lat="42.96955" lon="0.09707">
        <ele>1117.09</ele>
        <time>2016-10-11T10:37:06Z</time>
      </trkpt>
      <trkpt lat="42.96944" lon="0.09697">
        <ele>1116.12</ele>
        <time>2016-10-11T10:37:21Z</time>
      </trkpt>
      <trkpt lat="42.9694" lon="0.09677">
        <ele>1115.89</ele>
        <time>2016-10-11T10:37:41Z</time>
      </trkpt>
      <trkpt lat="42.96937" lon="0.0967">
        <ele>1118.94</ele>
        <time>2016-10-11T10:37:48Z</time>
      </trkpt>
      <trkpt lat="42.96936" lon="0.09669">
        <ele>1118.93</ele>
        <time>2016-10-11T10:37:49Z</time>
      </trkpt>
      <trkpt lat="42.96934" lon="0.09664">
        <ele>1120.22</ele>
        <time>2016-10-11T10:37:54Z</time>
      </trkpt>
      <trkpt lat="42.96931" lon="0.09652">
        <ele>1120.14</ele>
        <time>2016-10-11T10:38:01Z</time>
      </trkpt>
      <trkpt lat="42.96923" lon="0.09627">
        <ele>1120.72</ele>
        <time>2016-10-11T10:38:18Z</time>
      </trkpt>
      <trkpt lat="42.96913" lon="0.09618">
        <ele>1121.57</ele>
        <time>2016-10-11T10:38:36Z</time>
      </trkpt>
      <trkpt lat="42.96915" lon="0.09613">
        <ele>1122.32</ele>
        <time>2016-10-11T10:39:02Z</time>
      </trkpt>
      <trkpt lat="42.96904" lon="0.096">
        <ele>1123.05</ele>
        <time>2016-10-11T10:39:23Z</time>
      </trkpt>
      <trkpt lat="42.96903" lon="0.09601">
        <ele>1123.03</ele>
        <time>2016-10-11T10:39:25Z</time>
      </trkpt>
      <trkpt lat="42.96894" lon="0.09587">
        <ele>1124.91</ele>
        <time>2016-10-11T10:39:43Z</time>
      </trkpt>
      <trkpt lat="42.96888" lon="0.09581">
        <ele>1124.83</ele>
        <time>2016-10-11T10:39:51Z</time>
      </trkpt>
      <trkpt lat="42.96877" lon="0.09568">
        <ele>1126.47</ele>
        <time>2016-10-11T10:40:08Z</time>
      </trkpt>
      <trkpt lat="42.96869" lon="0.09555">
        <ele>1126.26</ele>
        <time>2016-10-11T10:40:25Z</time>
      </trkpt>
      <trkpt lat="42.96867" lon="0.09555">
        <ele>1123.88</ele>
        <time>2016-10-11T10:40:27Z</time>
      </trkpt>
      <trkpt lat="42.96855" lon="0.09558">
        <ele>1121.68</ele>
        <time>2016-10-11T10:40:42Z</time>
      </trkpt>
      <trkpt lat="42.96852" lon="0.09559">
        <ele>1121.67</ele>
        <time>2016-10-11T10:40:45Z</time>
      </trkpt>
      <trkpt lat="42.96842" lon="0.09558">
        <ele>1119.57</ele>
        <time>2016-10-11T10:40:58Z</time>
      </trkpt>
      <trkpt lat="42.9684" lon="0.09557">
        <ele>1118.53</ele>
        <time>2016-10-11T10:41:15Z</time>
      </trkpt>
      <trkpt lat="42.96824" lon="0.09548">
        <ele>1114.6</ele>
        <time>2016-10-11T10:41:31Z</time>
      </trkpt>
      <trkpt lat="42.96823" lon="0.09548">
        <ele>1114.59</ele>
        <time>2016-10-11T10:41:32Z</time>
      </trkpt>
      <trkpt lat="42.96818" lon="0.09545">
        <ele>1114.39</ele>
        <time>2016-10-11T10:41:37Z</time>
      </trkpt>
      <trkpt lat="42.96815" lon="0.09544">
        <ele>1113.68</ele>
        <time>2016-10-11T10:41:39Z</time>
      </trkpt>
      <trkpt lat="42.96813" lon="0.09542">
        <ele>1112.63</ele>
        <time>2016-10-11T10:41:41Z</time>
      </trkpt>
      <trkpt lat="42.96801" lon="0.09535">
        <ele>1110.34</ele>
        <time>2016-10-11T10:41:54Z</time>
      </trkpt>
      <trkpt lat="42.96796" lon="0.09532">
        <ele>1108.22</ele>
        <time>2016-10-11T10:42:02Z</time>
      </trkpt>
      <trkpt lat="42.96787" lon="0.09525">
        <ele>1106.26</ele>
        <time>2016-10-11T10:42:18Z</time>
      </trkpt>
      <trkpt lat="42.9678" lon="0.09522">
        <ele>1105.2</ele>
        <time>2016-10-11T10:42:23Z</time>
      </trkpt>
      <trkpt lat="42.9677" lon="0.09512">
        <ele>1102.46</ele>
        <time>2016-10-11T10:42:33Z</time>
      </trkpt>
      <trkpt lat="42.96761" lon="0.09502">
        <ele>1099.66</ele>
        <time>2016-10-11T10:42:44Z</time>
      </trkpt>
      <trkpt lat="42.96753" lon="0.09484">
        <ele>1096.86</ele>
        <time>2016-10-11T10:43:00Z</time>
      </trkpt>
      <trkpt lat="42.96743" lon="0.0948">
        <ele>1095.83</ele>
        <time>2016-10-11T10:43:11Z</time>
      </trkpt>
      <trkpt lat="42.96741" lon="0.0948">
        <ele>1095.76</ele>
        <time>2016-10-11T10:43:12Z</time>
      </trkpt>
      <trkpt lat="42.9674" lon="0.0948">
        <ele>1094.91</ele>
        <time>2016-10-11T10:43:13Z</time>
      </trkpt>
      <trkpt lat="42.96738" lon="0.0948">
        <ele>1094.9</ele>
        <time>2016-10-11T10:43:14Z</time>
      </trkpt>
      <trkpt lat="42.96737" lon="0.0948">
        <ele>1095.09</ele>
        <time>2016-10-11T10:43:15Z</time>
      </trkpt>
      <trkpt lat="42.96733" lon="0.09483">
        <ele>1093.2</ele>
        <time>2016-10-11T10:43:21Z</time>
      </trkpt>
      <trkpt lat="42.96724" lon="0.09489">
        <ele>1090.17</ele>
        <time>2016-10-11T10:43:34Z</time>
      </trkpt>
      <trkpt lat="42.96721" lon="0.09487">
        <ele>1089.27</ele>
        <time>2016-10-11T10:43:38Z</time>
      </trkpt>
      <trkpt lat="42.96705" lon="0.09477">
        <ele>1085.78</ele>
        <time>2016-10-11T10:43:59Z</time>
      </trkpt>
      <trkpt lat="42.96699" lon="0.09462">
        <ele>1084.48</ele>
        <time>2016-10-11T10:44:23Z</time>
      </trkpt>
      <trkpt lat="42.96688" lon="0.09455">
        <ele>1083.48</ele>
        <time>2016-10-11T10:44:31Z</time>
      </trkpt>
      <trkpt lat="42.96681" lon="0.09452">
        <ele>1082.33</ele>
        <time>2016-10-11T10:44:38Z</time>
      </trkpt>
      <trkpt lat="42.96668" lon="0.09447">
        <ele>1082.36</ele>
        <time>2016-10-11T10:44:55Z</time>
      </trkpt>
      <trkpt lat="42.96655" lon="0.09437">
        <ele>1079.8</ele>
        <time>2016-10-11T10:45:12Z</time>
      </trkpt>
      <trkpt lat="42.96647" lon="0.09427">
        <ele>1077.8</ele>
        <time>2016-10-11T10:45:26Z</time>
      </trkpt>
      <trkpt lat="42.96636" lon="0.0941">
        <ele>1075.78</ele>
        <time>2016-10-11T10:45:40Z</time>
      </trkpt>
      <trkpt lat="42.96626" lon="0.09397">
        <ele>1074.79</ele>
        <time>2016-10-11T10:45:52Z</time>
      </trkpt>
      <trkpt lat="42.96613" lon="0.09384">
        <ele>1072.93</ele>
        <time>2016-10-11T10:46:06Z</time>
      </trkpt>
      <trkpt lat="42.96604" lon="0.09378">
        <ele>1072.09</ele>
        <time>2016-10-11T10:46:15Z</time>
      </trkpt>
      <trkpt lat="42.96602" lon="0.09377">
        <ele>1072.14</ele>
        <time>2016-10-11T10:46:19Z</time>
      </trkpt>
      <trkpt lat="42.966" lon="0.09377">
        <ele>1072.11</ele>
        <time>2016-10-11T10:46:20Z</time>
      </trkpt>
      <trkpt lat="42.96599" lon="0.09377">
        <ele>1072.1</ele>
        <time>2016-10-11T10:46:21Z</time>
      </trkpt>
      <trkpt lat="42.96597" lon="0.09377">
        <ele>1071.24</ele>
        <time>2016-10-11T10:46:22Z</time>
      </trkpt>
      <trkpt lat="42.96595" lon="0.09378">
        <ele>1070.4</ele>
        <time>2016-10-11T10:46:23Z</time>
      </trkpt>
      <trkpt lat="42.96594" lon="0.09378">
        <ele>1070.41</ele>
        <time>2016-10-11T10:46:24Z</time>
      </trkpt>
      <trkpt lat="42.96592" lon="0.09382">
        <ele>1070.46</ele>
        <time>2016-10-11T10:46:29Z</time>
      </trkpt>
      <trkpt lat="42.96583" lon="0.09396">
        <ele>1068.38</ele>
        <time>2016-10-11T10:46:41Z</time>
      </trkpt>
      <trkpt lat="42.96577" lon="0.09406">
        <ele>1066.98</ele>
        <time>2016-10-11T10:46:49Z</time>
      </trkpt>
      <trkpt lat="42.96576" lon="0.09406">
        <ele>1067</ele>
        <time>2016-10-11T10:46:50Z</time>
      </trkpt>
      <trkpt lat="42.96573" lon="0.0941">
        <ele>1064.92</ele>
        <time>2016-10-11T10:47:01Z</time>
      </trkpt>
      <trkpt lat="42.96572" lon="0.09411">
        <ele>1064.91</ele>
        <time>2016-10-11T10:47:02Z</time>
      </trkpt>
      <trkpt lat="42.96571" lon="0.09416">
        <ele>1064.93</ele>
        <time>2016-10-11T10:47:14Z</time>
      </trkpt>
      <trkpt lat="42.9657" lon="0.09418">
        <ele>1063.85</ele>
        <time>2016-10-11T10:47:42Z</time>
      </trkpt>
      <trkpt lat="42.96571" lon="0.09418">
        <ele>1063.78</ele>
        <time>2016-10-11T10:48:05Z</time>
      </trkpt>
      <trkpt lat="42.96571" lon="0.09417">
        <ele>1065.33</ele>
        <time>2016-10-11T10:48:09Z</time>
      </trkpt>
      <trkpt lat="42.96571" lon="0.09415">
        <ele>1065.17</ele>
        <time>2016-10-11T10:48:37Z</time>
      </trkpt>
      <trkpt lat="42.9657" lon="0.09415">
        <ele>1065.1</ele>
        <time>2016-10-11T10:48:47Z</time>
      </trkpt>
    </trkseg>
  </trk>
</gpx>